Flight Track Log - Related Links

Times and Time Zones

All times are in EDT time to prevent confusion due to time zone crossing. See the CPA845 flight status page for this flight to view local times or setup timezone preferences in your user account.

Time Position Orientation Groundspeed Altitude Reporting Facility
EDT Latitude Longitude Course Direction KTS MPH feet Rate Location/Type
Thu 01:44:00 AM 40.7635 -73.6563 57° Northeast  Level FlightAware Approximate
Thu 01:45:00 AM 40.8775 -73.5696 21° North  Level FlightAware Approximate
Thu 01:46:00 AM 40.9849 -73.4651 37° Northeast  Level FlightAware Approximate
Thu 01:47:00 AM 41.0974 -73.3693 37° Northeast  Level FlightAware Approximate
Thu 01:47:31 AM 40.5364 -73.7210 37° Northeast 281 323 8,800  Level FlightAware ADS-B (KSNC)
Thu 01:47:52 AM 40.5599 -73.7014 30° Northeast 284 327 9,600 2,057 Climbing FlightAware ADS-B (KSNC)
Thu 01:48:41 AM 40.6120 -73.6663 27° Northeast 296 341 11,200 1,517 Climbing FlightAware ADS-B (KSNC)
Thu 01:49:19 AM 40.6679 -73.6290 27° Northeast 333 383 11,800 1,200 Climbing FlightAware ADS-B (KSNC)
Thu 01:49:51 AM 40.7140 -73.5975 28° Northeast 352 405 12,600 1,810 Climbing FlightAware ADS-B (KSNC)
Thu 01:50:22 AM 40.7592 -73.5665 28° Northeast 361 415 13,700 1,886 Climbing FlightAware ADS-B (KSNC)
Thu 01:51:01 AM 40.8180 -73.5262 27° Northeast 376 433 14,800 1,800 Climbing FlightAware ADS-B (KSNC)
Thu 01:51:32 AM 40.8644 -73.4945 27° Northeast 382 440 15,800 1,886 Climbing FlightAware ADS-B (KSNC)
Thu 01:52:11 AM 40.9278 -73.4512 28° Northeast 390 449 17,000 1,800 Climbing FlightAware ADS-B (KSNC)
Thu 01:52:42 AM 40.9767 -73.4174 28° Northeast 395 455 17,900 1,775 Climbing FlightAware ADS-B (KSNC)
Thu 01:53:22 AM 41.0401 -73.3646 35° Northeast 407 468 19,100 1,800 Climbing FlightAware ADS-B (KSNC)
Thu 01:54:02 AM 41.1010 -73.3041 38° Northeast 416 479 20,300 1,650 Climbing FlightAware ADS-B (KSNC)
Thu 01:54:42 AM 41.1602 -73.2428 38° Northeast 422 486 21,300 1,457 Climbing FlightAware ADS-B (KSNC)
Thu 01:55:12 AM 41.2094 -73.1918 38° Northeast 427 491 22,000 1,400 Climbing FlightAware ADS-B (KSNC)
Thu 01:55:42 AM 41.2536 -73.1465 38° Northeast 433 498 22,700 1,400 Climbing FlightAware ADS-B (KSNC)
Thu 01:56:12 AM 41.3036 -73.0951 38° Northeast 439 505 23,400 1,371 Climbing FlightAware ADS-B (KSNC)
Thu 01:56:52 AM 41.3679 -73.0291 38° Northeast 444 511 24,300 1,200 Climbing FlightAware ADS-B (KSNC)
Thu 01:57:32 AM 41.4339 -72.9614 38° Northeast 452 520 25,000 1,215 Climbing FlightAware ADS-B (KSNC)
Thu 01:58:11 AM 41.4993 -72.8939 38° Northeast 456 525 25,900 1,371 Climbing FlightAware ADS-B (KSNC)
Thu 01:58:42 AM 41.5486 -72.8430 38° Northeast 456 525 26,600 1,268 Climbing FlightAware ADS-B (KSNC)
Thu 01:59:22 AM 41.6135 -72.7759 38° Northeast 459 528 27,400 1,114 Climbing FlightAware ADS-B (KSNC)
Thu 01:59:52 AM 41.6677 -72.7197 38° Northeast 462 532 27,900 1,043 Climbing FlightAware ADS-B (KSNC)
Thu 02:00:31 AM 41.7305 -72.6544 38° Northeast 463 533 28,600 943 Climbing FlightAware ADS-B (KSNC)
Thu 02:01:02 AM 41.7853 -72.5973 38° Northeast 467 537 29,000 387 Climbing FlightAware ADS-B (KSNC)
Thu 02:01:33 AM 41.8384 -72.5419 38° Northeast 475 547 29,000  Level FlightAware ADS-B (LDSP / SPU)
Thu 02:02:12 AM 41.8933 -72.4843 38° Northeast 476 548 29,000  Level FlightAware ADS-B (KSNC)
Thu 02:02:42 AM 41.9587 -72.4155 38° Northeast 474 545 29,000  Level FlightAware ADS-B (KSNC)
Thu 02:03:12 AM 41.9983 -72.3739 38° Northeast 473 544 29,000  Level FlightAware ADS-B (LDSP / SPU)
Thu 02:03:46 AM 42.0682 -72.3002 38° Northeast 474 545 29,000  Level FlightAware ADS-B (KASH)
Thu 02:04:16 AM 42.1207 -72.2449 38° Northeast 475 547 29,000  Level FlightAware ADS-B (KASH)
Thu 02:04:53 AM 42.1671 -72.1957 38° Northeast 480 552 29,000  Level FlightAware ADS-B (LDSP / SPU)
Thu 02:05:31 AM 42.2518 -72.1059 39° Northeast 477 549 29,000  Level FlightAware ADS-B (KASH)
Thu 02:06:15 AM 42.3279 -72.0246 39° Northeast 479 551 29,000  Level FlightAware ADS-B (KASH)
Thu 02:06:46 AM 42.3829 -71.9660 39° Northeast 481 554 29,000  Level FlightAware ADS-B (KASH)
Thu 02:07:16 AM 42.4361 -71.9090 39° Northeast 481 554 29,000  Level FlightAware ADS-B (KASH)
Thu 02:07:54 AM 42.4654 -71.8775 39° Northeast 487 560 29,000  Level FlightAware ADS-B (EPKK / KRK)
Thu 02:08:32 AM 42.5695 -71.7656 39° Northeast 483 556 29,000  Level FlightAware ADS-B (KASH)
Thu 02:09:06 AM 42.6300 -71.7002 39° Northeast 486 559 29,000  Level FlightAware ADS-B (EPKK / KRK)
Thu 02:09:46 AM 42.6995 -71.6248 39° Northeast 476 548 29,000  Level FlightAware ADS-B (KASH)
Thu 02:10:16 AM 42.7519 -71.5680 39° Northeast 478 550 29,000  Level FlightAware ADS-B (KASH)
Thu 02:10:47 AM 42.8059 -71.5094 39° Northeast 480 552 29,000  Level FlightAware ADS-B (KASH)
Thu 02:11:17 AM 42.8592 -71.4513 39° Northeast 478 550 29,000  Level FlightAware ADS-B (KASH)
Thu 02:11:53 AM 42.9209 -71.3838 39° Northeast 484 557 29,000  Level FlightAware ADS-B (EPKK / KRK)
Thu 02:12:23 AM 42.9730 -71.3266 39° Northeast 487 560 29,000  Level FlightAware ADS-B (EPKK / KRK)
Thu 02:12:53 AM 43.0258 -71.2688 39° Northeast 489 563 29,000  Level FlightAware ADS-B (EPKK / KRK)
Thu 02:13:23 AM 43.0800 -71.2092 39° Northeast 490 564 29,000  Level FlightAware ADS-B (EPKK / KRK)
Thu 02:13:55 AM 43.1357 -71.1477 39° Northeast 491 565 29,000  Level FlightAware ADS-B (EPKK / KRK)
Thu 02:13:58 AM 43.1410 -71.1418 39° Northeast 490 564 29,000  Level FlightAware ADS-B
Thu 02:14:32 AM 43.2007 -71.0757 40° Northeast 483 556 29,000  Level FlightAware ADS-B (KASH)
Thu 02:15:02 AM 43.2544 -71.0162 40° Northeast 482 555 29,000  Level FlightAware ADS-B (KASH)
Thu 02:15:12 AM 43.2684 -71.0006 39° Northeast 488 562 29,000  Level FlightAware ADS-B (EPKK / KRK)
Thu 02:15:45 AM 43.3286 -70.9337 40° Northeast 481 554 29,000  Level FlightAware ADS-B (KASH)
Thu 02:16:16 AM 43.3834 -70.8725 40° Northeast 481 554 29,000  Level FlightAware ADS-B (KASH)
Thu 02:17:02 AM 43.4632 -70.7833 40° Northeast 482 555 29,000  Level FlightAware ADS-B (KASH)
Thu 02:17:33 AM 43.5184 -70.7215 40° Northeast 481 554 29,000  Level FlightAware ADS-B (KASH)
Thu 02:18:04 AM 43.5720 -70.6611 39° Northeast 487 560 29,000  Level FlightAware ADS-B (EPKK / KRK)
Thu 02:18:31 AM 43.6187 -70.6085 39° Northeast 487 560 29,000  Level FlightAware ADS-B (EPKK / KRK)
Thu 02:19:01 AM 43.6719 -70.5482 40° Northeast 481 554 29,000  Level FlightAware ADS-B (KASH)
Thu 02:19:42 AM 43.7422 -70.4688 40° Northeast 481 554 29,000  Level FlightAware ADS-B (KASH)
Thu 02:20:27 AM 43.8212 -70.3791 40° Northeast 487 560 29,000  Level FlightAware ADS-B
Thu 02:20:57 AM 43.8698 -70.3237 40° Northeast 486 559 29,000  Level FlightAware ADS-B
Thu 02:21:27 AM 43.8930 -70.2972 40° Northeast 487 560 29,000  Level FlightAware ADS-B
Thu 02:22:17 AM 44.0091 -70.1640 40° Northeast 485 558 29,000  Level FlightAware ADS-B
Thu 02:22:56 AM 44.0764 -70.0866 40° Northeast 484 557 29,000  Level FlightAware ADS-B
Thu 02:23:28 AM 44.1316 -70.0230 40° Northeast 486 559 29,000  Level FlightAware ADS-B
Thu 02:24:07 AM 44.1933 -69.9518 40° Northeast 488 562 29,000  Level FlightAware ADS-B
Thu 02:24:44 AM 44.2625 -69.8716 40° Northeast 491 565 29,000  Level FlightAware ADS-B
Thu 02:25:17 AM 44.3221 -69.8022 40° Northeast 493 567 29,000  Level FlightAware ADS-B
Thu 02:25:58 AM 44.3890 -69.7241 40° Northeast 496 571 29,000  Level FlightAware ADS-B
Thu 02:26:29 AM 44.4385 -69.6663 40° Northeast 493 567 29,000  Level FlightAware ADS-B
Thu 02:27:05 AM 44.5108 -69.5815 40° Northeast 495 570 29,000  Level FlightAware ADS-B
Thu 02:27:38 AM 44.5682 -69.5139 40° Northeast 495 570 29,000  Level FlightAware ADS-B
Thu 02:28:11 AM 44.6197 -69.4531 40° Northeast 496 571 29,000  Level FlightAware ADS-B (YSBK / BWU)
Thu 02:28:43 AM 44.6838 -69.3773 40° Northeast 496 571 29,000  Level FlightAware ADS-B
Thu 02:29:13 AM 44.7356 -69.3159 40° Northeast 495 570 29,000  Level FlightAware ADS-B
Thu 02:29:51 AM 44.7925 -69.2483 40° Northeast 492 566 29,000  Level FlightAware ADS-B (YSBK / BWU)
Thu 02:30:28 AM 44.8575 -69.1707 40° Northeast 491 565 29,000  Level FlightAware ADS-B
Thu 02:30:58 AM 44.9168 -69.0999 40° Northeast 492 566 29,000  Level FlightAware ADS-B
Thu 02:31:28 AM 44.9699 -69.0375 38° Northeast 495 570 29,000  Level FlightAware ADS-B
Thu 02:31:43 AM 44.9907 -69.0181 29° Northeast 505 581 29,000  Level FlightAware ADS-B
Thu 02:31:59 AM 45.0344 -68.9890 20° North 516 594 29,000  Level FlightAware ADS-B (YSBK / BWU)
Thu 02:32:07 AM 45.0367 -68.9878 15° North 523 602 29,000  Level FlightAware ADS-B
Thu 02:32:43 AM 45.1357 -68.9497 14° North 522 601 29,000  Level FlightAware ADS-B
Thu 02:33:13 AM 45.2046 -68.9249 14° North 523 602 29,000  Level FlightAware ADS-B
Thu 02:33:44 AM 45.2775 -68.8987 14° North 522 601 29,000  Level FlightAware ADS-B
Thu 02:34:14 AM 45.3474 -68.8732 14° North 523 602 29,000  Level FlightAware ADS-B
Thu 02:34:18 AM 45.3337 -68.8782 14° North 523 602 29,000  Level FlightAware ADS-B
Thu 02:34:53 AM 45.4335 -68.8418 15° North 524 603 29,000  Level FlightAware ADS-B
Thu 02:35:23 AM 45.5093 -68.8137 15° North 523 602 29,000  Level FlightAware ADS-B
Thu 02:35:53 AM 45.5773 -68.7885 15° North 525 604 29,000  Level FlightAware ADS-B
Thu 02:36:23 AM 45.6520 -68.7607 15° North 526 605 29,000  Level FlightAware ADS-B
Thu 02:36:54 AM 45.7247 -68.7336 15° North 528 608 29,000  Level FlightAware ADS-B
Thu 02:37:27 AM 45.8018 -68.7048 15° North 529 609 29,000  Level FlightAware ADS-B
Thu 02:37:58 AM 45.8695 -68.6795 15° North 531 611 29,000  Level FlightAware ADS-B
Thu 02:38:34 AM 45.9621 -68.6446 15° North 532 612 29,000  Level FlightAware ADS-B
Thu 02:39:05 AM 46.0360 -68.6169 15° North 533 613 29,000  Level FlightAware ADS-B
Thu 02:39:35 AM 46.1047 -68.5910 15° North 533 613 29,000  Level FlightAware ADS-B
Thu 02:40:09 AM 46.1152 -68.5870 15° North 536 617 29,000  Level FlightAware ADS-B
Thu 02:40:45 AM 46.2506 -68.5357 15° North 537 618 29,000  Level FlightAware ADS-B
Thu 02:41:24 AM 46.3663 -68.4916 15° North 538 619 29,000 343 Level FlightAware ADS-B
Thu 02:41:55 AM 46.4429 -68.4623 15° North 539 620 29,400 857 Climbing FlightAware ADS-B
Thu 02:42:34 AM 46.5380 -68.4259 15° North 543 625 30,000 857 Climbing FlightAware ADS-B
Thu 02:43:12 AM 46.6306 -68.3902 15° North 548 631 30,500 761 Climbing FlightAware ADS-B
Thu 02:43:45 AM 46.7099 -68.3596 15° North 554 638 30,900 469 Climbing FlightAware ADS-B
Thu 02:44:16 AM 46.7773 -68.3335 15° North 556 640 31,000 98 Climbing FlightAware ADS-B
Thu 02:44:46 AM 46.8618 -68.3007 15° North 557 641 31,000  Level FlightAware ADS-B
Thu 02:45:36 AM 46.9853 -68.2526 15° North 559 643 31,000  Level FlightAware ADS-B
Thu 02:46:13 AM 47.0703 -68.2193 15° North 561 646 31,000  Level FlightAware ADS-B
Thu 02:46:46 AM 47.1631 -68.1829 15° North 562 647 31,000  Level FlightAware ADS-B
Thu 02:47:26 AM 47.2619 -68.1440 15° North 562 647 31,000  Level FlightAware ADS-B
Thu 02:48:03 AM 47.3557 -68.1068 15° North 564 649 31,000  Level FlightAware ADS-B
Thu 02:50:58 AM 47.7975 -67.9302 15° North 570 656 31,000  Level FlightAware ADS-B
Thu 02:51:33 AM 47.8667 -67.8833 15° North 570 656 31,000  Level Moncton Center
Thu 02:52:33 AM 48.0167 -67.8333 13° North 570 656 31,000  Level Moncton Center
Thu 02:53:33 AM 48.1667 -67.7667 17° North 570 656 31,000  Level Moncton Center
Thu 02:54:33 AM 48.3167 -67.7167 12° North 570 656 31,000  Level Moncton Center
Thu 02:55:33 AM 48.4667 -67.6500 16° North 560 644 31,000  Level Moncton Center
Thu 02:56:33 AM 48.6333 -67.5833 15° North 560 644 31,000  Level Moncton Center
Thu 02:57:33 AM 48.7833 -67.5167 16° North 570 656 31,000  Level Moncton Center
Thu 02:58:33 AM 48.9333 -67.4500 16° North 570 656 31,000  Level Moncton Center
Thu 02:59:33 AM 49.0833 -67.3833 16° North 570 656 31,000  Level Moncton Center
Thu 03:00:33 AM 49.2333 -67.3167 16° North 570 656 31,000  Level Moncton Center
Thu 03:01:33 AM 49.3667 -67.2833 North 570 656 31,000  Level Moncton Center
Thu 03:02:33 AM 49.5333 -67.1833 21° North 570 656 31,000  Level Moncton Center
Thu 03:03:33 AM 49.7000 -67.1333 11° North 570 656 31,000  Level Moncton Center
Thu 03:04:33 AM 49.8500 -67.0667 16° North 570 656 31,000  Level Moncton Center
Thu 03:05:33 AM 50.0000 -66.9833 20° North 570 656 31,000  Level Moncton Center
Thu 03:06:33 AM 50.1333 -66.9000 22° Northeast 570 656 31,000  Level Moncton Center
Thu 03:07:33 AM 50.2833 -66.8333 16° North 560 644 31,000  Level Moncton Center
Thu 03:08:33 AM 50.4333 -66.7667 16° North 560 644 31,000  Level Moncton Center
Thu 03:09:33 AM 50.5833 -66.6667 23° Northeast 550 633 31,000  Level Moncton Center
Thu 03:10:33 AM 50.7333 -66.6000 16° North 550 633 31,000  Level Moncton Center
Thu 03:11:33 AM 50.8833 -66.5167 19° North 540 621 31,000  Level Moncton Center
Thu 03:12:33 AM 51.0167 -66.4500 17° North 540 621 31,000  Level Moncton Center
Thu 03:13:33 AM 51.1500 -66.3667 21° North 540 621 31,000  Level Moncton Center
Thu 03:14:33 AM 51.3000 -66.3000 16° North 540 621 31,000  Level Moncton Center
Thu 03:15:33 AM 51.4333 -66.2167 21° North 540 621 31,000  Level Moncton Center
Thu 03:16:33 AM 51.5833 -66.1500 15° North 530 610 31,000  Level Moncton Center
Thu 03:17:33 AM 51.7167 -66.0667 21° North 530 610 31,000  Level Moncton Center
Thu 03:18:33 AM 51.8500 -66.0000 17° North 530 610 31,000  Level Moncton Center
Thu 03:19:33 AM 52.0167 -65.9167 17° North 530 610 31,000  Level Moncton Center
Thu 03:20:33 AM 52.1500 -65.8500 17° North 530 610 31,000  Level Moncton Center
Thu 03:21:33 AM 52.3000 -65.7667 19° North 530 610 31,000  Level Moncton Center
Thu 03:22:33 AM 52.4333 -65.6833 21° North 540 621 31,000  Level Moncton Center
Thu 03:23:33 AM 52.5667 -65.6000 21° North 540 621 31,000  Level Moncton Center
Thu 03:24:33 AM 52.7167 -65.5333 15° North 540 621 31,000  Level Moncton Center
Thu 03:25:33 AM 52.8500 -65.4167 28° Northeast 540 621 31,000  Level Moncton Center
Thu 03:26:33 AM 53.0000 -65.3500 15° North 540 621 31,000  Level Moncton Center
Thu 03:27:33 AM 53.1333 -65.2667 21° North 530 610 31,000  Level Moncton Center
Thu 03:28:33 AM 53.2667 -65.1833 20° North 540 621 31,000  Level Moncton Center
Thu 03:29:33 AM 53.4167 -65.1000 18° North 530 610 31,000  Level Moncton Center
Thu 03:30:33 AM 53.5500 -65.0167 20° North 540 621 31,000  Level Moncton Center
Thu 03:31:33 AM 53.7000 -64.9333 18° North 530 610 31,000  Level Moncton Center
Thu 03:32:33 AM 53.8333 -64.8500 20° North 530 610 31,000  Level Moncton Center
Thu 03:33:33 AM 53.9667 -64.7667 20° North 530 610 31,000  Level Moncton Center
Thu 03:34:33 AM 54.1000 -64.6833 20° North 530 610 31,000  Level Moncton Center
Thu 03:35:33 AM 54.2333 -64.6000 20° North 530 610 31,000  Level Moncton Center
Thu 03:36:33 AM 54.3833 -64.5167 18° North 530 610 31,000  Level Moncton Center
Thu 03:37:33 AM 54.5167 -64.4333 20° North 530 610 31,000  Level Moncton Center
Thu 03:38:33 AM 54.6667 -64.3333 21° North 530 610 31,000  Level Moncton Center
Thu 03:39:33 AM 54.8000 -64.2500 20° North 530 610 31,000  Level Moncton Center
Thu 03:40:33 AM 54.9500 -64.1667 18° North 530 610 31,000  Level Moncton Center
Thu 03:41:33 AM 55.0833 -64.0833 20° North 530 610 31,000  Level Moncton Center
Thu 03:42:33 AM 55.2167 -63.9833 23° Northeast 530 610 31,000  Level Moncton Center
Thu 03:43:33 AM 55.3667 -63.9000 18° North 530 610 31,000  Level Moncton Center
Thu 03:44:33 AM 55.4833 -63.8000 26° Northeast 530 610 31,000  Level Moncton Center
Thu 03:45:33 AM 55.6167 -63.7167 19° North 530 610 31,000  Level Moncton Center
Thu 03:46:33 AM 55.7500 -63.6333 19° North 530 610 31,000  Level Moncton Center
Thu 03:47:33 AM 55.9000 -63.5000 26° Northeast 540 621 31,000  Level Moncton Center
Thu 03:48:33 AM 56.0333 -63.4500 12° North 530 610 31,000  Level Moncton Center
Thu 03:49:33 AM 56.1833 -63.3167 26° Northeast 530 610 31,000  Level Moncton Center
Thu 03:50:33 AM 56.3167 -63.2167 23° Northeast 530 610 31,000  Level Moncton Center
Thu 03:51:33 AM 56.4500 -63.1333 19° North 530 610 31,000  Level Moncton Center
Thu 03:52:33 AM 56.5833 -63.0333 22° Northeast 520 598 31,000  Level Moncton Center
Thu 03:53:33 AM 56.7167 -62.9667 15° North 520 598 31,000  Level Moncton Center
Thu 03:54:55 AM 56.9167 -62.8167 22° Northeast 520 598 31,000  Level Gander Center
Thu 03:55:55 AM 57.0500 -62.7167 22° Northeast 520 598 31,000  Level Gander Center
Thu 03:56:55 AM 57.1833 -62.6333 19° North 530 610 31,000  Level Gander Center
Thu 03:57:55 AM 57.3167 -62.5167 25° Northeast 520 598 31,000  Level Gander Center
Thu 03:58:55 AM 57.4500 -62.4000 25° Northeast 510 587 31,000  Level Gander Center
Thu 03:59:55 AM 57.5833 -62.2833 25° Northeast 510 587 31,000  Level Gander Center
Thu 04:00:55 AM 57.7167 -62.1500 28° Northeast 520 598 31,000  Level Gander Center
Thu 04:01:55 AM 57.8333 -62.0667 21° North 520 598 31,000  Level Gander Center
Thu 04:02:55 AM 57.9667 -61.9500 25° Northeast 520 598 31,000  Level Gander Center
Thu 04:03:55 AM 58.1000 -61.8167 28° Northeast 520 598 31,000  Level Gander Center
Thu 04:04:55 AM 58.2167 -61.7000 28° Northeast 520 598 31,000  Level Gander Center
Thu 04:05:55 AM 58.3500 -61.6000 21° North 520 598 31,000  Level Gander Center
Thu 04:06:55 AM 58.4833 -61.4667 28° Northeast 520 598 31,000  Level Gander Center
Thu 04:07:55 AM 58.6000 -61.3500 28° Northeast 520 598 31,000  Level Gander Center
Thu 04:08:55 AM 58.7333 -61.2167 27° Northeast 520 598 31,000  Level Gander Center
Thu 04:09:55 AM 58.8500 -61.1167 24° Northeast 500 575 31,000  Level Gander Center
Thu 04:10:55 AM 58.9833 -60.9833 27° Northeast 500 575 31,000  Level Gander Center
Thu 04:11:55 AM 59.1000 -60.8667 27° Northeast 510 587 31,000  Level Gander Center
Thu 04:12:55 AM 59.2333 -60.7333 27° Northeast 520 598 31,000  Level Gander Center
Thu 04:13:55 AM 59.3667 -60.6333 21° North 520 598 31,000  Level Gander Center
Thu 04:14:55 AM 59.5000 -60.5000 20° North 520 598 31,000  Level Gander Center
Thu 04:15:07 AM 60.0000 -60.0000 20° North 522 601 31,000  Level ETMS Enhanced Traffic Management System
Thu 04:15:55 AM 59.6333 -60.3667 27° Northeast 520 598 31,000  Level Gander Center
Thu 04:16:55 AM 59.7667 -60.2167 30° Northeast 530 610 31,000  Level Gander Center
Thu 04:17:55 AM 59.8833 -60.0833 30° Northeast 530 610 31,000  Level Gander Center
Thu 04:18:55 AM 60.0167 -59.9500 27° Northeast 530 610 31,000  Level Gander Center
Thu 04:19:59 AM 60.1667 -59.8500 18° North 530 610 31,000  Level Gander Center
Thu 04:20:00 AM 60.0000 -60.0000 20° North 522 601 31,000  Level ETMS Enhanced Traffic Management System
Thu 04:20:59 AM 60.2833 -59.7333 20° North 530 610 31,000  Level Gander Center
Thu 04:21:59 AM 60.4167 -59.6333 20° North 530 610 31,000  Level Gander Center
Thu 04:22:59 AM 60.5667 -59.5500 15° North 530 610 31,000  Level Gander Center
Thu 04:23:59 AM 60.7000 -59.4500 20° North 530 610 31,000  Level Gander Center
Thu 04:24:59 AM 60.8333 -59.3333 23° Northeast 530 610 31,000  Level Gander Center
Thu 04:25:59 AM 60.9667 -59.2333 20° North 530 610 31,000  Level Gander Center
Thu 04:26:59 AM 61.1167 -59.1167 21° North 530 610 31,000  Level Gander Center
Thu 04:27:59 AM 61.2500 -59.0000 23° Northeast 530 610 31,000  Level Gander Center
Thu 04:28:59 AM 61.4000 -58.8833 20° North 520 598 31,000  Level Gander Center
Thu 04:29:59 AM 61.5167 -58.7833 22° Northeast 520 598 31,000  Level Gander Center
Thu 04:30:59 AM 61.6667 -58.6667 20° North 530 610 31,000  Level Gander Center
Thu 04:31:59 AM 61.8000 -58.5500 22° Northeast 530 610 31,000  Level Gander Center
Thu 04:32:59 AM 61.9333 -58.4333 22° Northeast 530 610 31,000  Level Gander Center
Thu 04:33:59 AM 62.0833 -58.3000 23° Northeast 530 610 31,000  Level Gander Center
Thu 04:34:59 AM 62.2167 -58.1833 22° Northeast 530 610 31,000  Level Gander Center
Thu 04:35:59 AM 62.3333 -58.0667 25° Northeast 490 564 31,000  Level Gander Center
Thu 04:36:59 AM 62.4667 -57.9833 16° North 530 610 31,000  Level Gander Center
Thu 04:37:59 AM 62.6167 -57.8667 20° North 550 633 31,000  Level Gander Center
Thu 04:38:59 AM 62.7500 -57.7333 25° Northeast 530 610 31,000  Level Gander Center
Thu 04:39:59 AM 62.8833 -57.6167 22° Northeast 530 610 31,000  Level Gander Center
Thu 04:40:59 AM 63.0000 -57.4833 27° Northeast 530 610 31,000  Level Gander Center
Thu 04:41:59 AM 63.1500 -57.3667 19° North 520 598 31,000  Level Gander Center
Thu 04:42:59 AM 63.2833 -57.2333 24° Northeast 530 610 31,000  Level Gander Center
Thu 04:43:59 AM 63.4167 -57.1000 24° Northeast 530 610 31,000  Level Gander Center
Thu 04:44:59 AM 63.5333 -56.9667 27° Northeast 520 598 31,000  Level Gander Center
Thu 04:45:59 AM 63.6833 -56.8333 22° Northeast 520 598 31,000  Level Gander Center
Thu 04:46:59 AM 63.8167 -56.7167 21° North 520 598 31,000  Level Gander Center
Thu 04:47:59 AM 63.9333 -56.5833 27° Northeast 530 610 31,000  Level Gander Center
Thu 04:48:59 AM 64.0833 -56.4833 16° North 530 610 31,000  Level Gander Center
Thu 04:49:59 AM 64.2167 -56.3500 23° Northeast 530 610 31,000  Level Gander Center
Thu 04:50:59 AM 64.3500 -56.1667 31° Northeast 530 610 31,000  Level Gander Center
Thu 04:51:59 AM 64.4833 -56.0667 18° North 530 610 31,000  Level Gander Center
Thu 04:52:59 AM 64.6167 -55.9333 23° Northeast 530 610 31,000  Level Gander Center
Thu 04:53:59 AM 64.7333 -55.7833 29° Northeast 530 610 31,000  Level Gander Center
Thu 04:54:59 AM 64.8667 -55.6500 23° Northeast 530 610 31,000  Level Gander Center
Thu 04:55:59 AM 65.0167 -55.5000 23° Northeast 530 610 31,000  Level Gander Center
Thu 04:56:59 AM 65.1333 -55.3500 28° Northeast 530 610 31,000  Level Gander Center
Thu 04:57:59 AM 65.2667 -55.2167 23° Northeast 530 610 31,000  Level Gander Center
Thu 04:58:59 AM 65.4000 -55.0667 25° Northeast 530 610 31,000  Level Gander Center
Thu 04:59:59 AM 65.5333 -54.9167 25° Northeast 530 610 31,000  Level Gander Center
Thu 05:00:59 AM 65.6667 -54.8000 20° North 540 621 31,000  Level Gander Center
Thu 05:01:59 AM 65.8000 -54.6833 20° North 530 610 31,000  Level Gander Center
Thu 05:02:59 AM 65.9333 -54.5333 25° Northeast 530 610 31,000  Level Gander Center
Thu 05:03:59 AM 66.0833 -54.4167 17° North 530 610 31,000  Level Gander Center
Thu 05:04:59 AM 66.2000 -54.3000 22° Northeast 530 610 31,000  Level Gander Center
Thu 05:05:59 AM 66.3500 -54.1333 24° Northeast 530 610 31,000  Level Gander Center
Thu 05:06:59 AM 66.4667 -54.0167 22° Northeast 530 610 31,000 -8 Level Gander Center
Thu 05:09:00 AM 66.7278 -53.7627 21° North  Level FlightAware Approximate
Thu 05:16:00 AM 67.6309 -52.8379 21° North  Level FlightAware Approximate
Thu 05:17:00 AM 67.7595 -52.7000 22° Northeast  Level FlightAware Approximate
Thu 05:18:00 AM 67.8879 -52.5605 22° Northeast  Level FlightAware Approximate
Thu 05:19:00 AM 68.0162 -52.4196 22° Northeast  Level FlightAware Approximate
Thu 05:20:00 AM 68.1444 -52.2770 22° Northeast  Level FlightAware Approximate
Thu 05:21:00 AM 68.2725 -52.1329 23° Northeast  Level FlightAware Approximate
Thu 05:22:00 AM 68.4005 -51.9871 23° Northeast  Level FlightAware Approximate
Thu 05:23:00 AM 68.5283 -51.8396 23° Northeast  Level FlightAware Approximate
Thu 05:24:00 AM 68.6560 -51.6905 23° Northeast  Level FlightAware Approximate
Thu 05:25:00 AM 68.7836 -51.5397 23° Northeast  Level FlightAware Approximate
Thu 05:26:00 AM 68.9110 -51.3871 23° Northeast  Level FlightAware Approximate
Thu 05:27:00 AM 69.0383 -51.2328 23° Northeast  Level FlightAware Approximate
Thu 05:28:00 AM 69.1654 -51.0767 24° Northeast  Level FlightAware Approximate
Thu 05:29:00 AM 69.2924 -50.9187 24° Northeast  Level FlightAware Approximate
Thu 05:30:00 AM 69.4193 -50.7589 24° Northeast  Level FlightAware Approximate
Thu 05:31:00 AM 69.5460 -50.5972 24° Northeast  Level FlightAware Approximate
Thu 05:32:00 AM 69.6726 -50.4335 24° Northeast  Level FlightAware Approximate
Thu 05:33:00 AM 69.7990 -50.2679 24° Northeast  Level FlightAware Approximate
Thu 05:34:00 AM 69.9252 -50.1003 24° Northeast  Level FlightAware Approximate
Thu 05:35:00 AM 70.0506 -49.9258 27° Northeast  Level FlightAware Approximate
Thu 05:36:00 AM 70.1745 -49.7422 27° Northeast  Level FlightAware Approximate
Thu 05:37:00 AM 70.2983 -49.5564 27° Northeast  Level FlightAware Approximate
Thu 05:38:00 AM 70.4219 -49.3684 27° Northeast  Level FlightAware Approximate
Thu 05:39:00 AM 70.5453 -49.1780 27° Northeast  Level FlightAware Approximate
Thu 05:40:00 AM 70.6686 -48.9859 27° Northeast  Level FlightAware Approximate
Thu 05:41:00 AM 70.7918 -48.7923 27° Northeast  Level FlightAware Approximate
Thu 05:42:00 AM 70.9148 -48.5962 28° Northeast  Level FlightAware Approximate
Thu 05:43:00 AM 71.0376 -48.3977 28° Northeast  Level FlightAware Approximate
Thu 05:44:00 AM 71.1602 -48.1967 28° Northeast  Level FlightAware Approximate
Thu 05:45:00 AM 71.2826 -47.9932 28° Northeast  Level FlightAware Approximate
Thu 05:46:00 AM 71.4048 -47.7871 28° Northeast  Level FlightAware Approximate
Thu 05:47:00 AM 71.5267 -47.5784 28° Northeast  Level FlightAware Approximate
Thu 05:48:00 AM 71.6484 -47.3670 29° Northeast  Level FlightAware Approximate
Thu 05:49:00 AM 71.7698 -47.1528 29° Northeast  Level FlightAware Approximate
Thu 05:50:00 AM 71.8911 -46.9359 29° Northeast  Level FlightAware Approximate
Thu 05:51:00 AM 72.0120 -46.7162 29° Northeast  Level FlightAware Approximate
Thu 05:52:00 AM 72.1328 -46.4936 29° Northeast  Level FlightAware Approximate
Thu 05:53:00 AM 72.2532 -46.2681 30° Northeast  Level FlightAware Approximate
Thu 05:54:00 AM 72.3734 -46.0396 30° Northeast  Level FlightAware Approximate
Thu 05:55:00 AM 72.4934 -45.8081 30° Northeast  Level FlightAware Approximate
Thu 05:56:00 AM 72.6131 -45.5735 30° Northeast  Level FlightAware Approximate
Thu 05:57:00 AM 72.7324 -45.3357 31° Northeast  Level FlightAware Approximate
Thu 05:58:00 AM 72.8515 -45.0947 31° Northeast  Level FlightAware Approximate
Thu 05:59:00 AM 72.9704 -44.8505 31° Northeast  Level FlightAware Approximate
Thu 06:00:00 AM 73.0889 -44.6029 31° Northeast  Level FlightAware Approximate
Thu 06:01:00 AM 73.2071 -44.3520 31° Northeast  Level FlightAware Approximate
Thu 06:02:00 AM 73.3250 -44.0976 32° Northeast  Level FlightAware Approximate
Thu 06:03:00 AM 73.4426 -43.8396 32° Northeast  Level FlightAware Approximate
Thu 06:04:00 AM 73.5599 -43.5782 32° Northeast  Level FlightAware Approximate
Thu 06:05:00 AM 73.6770 -43.3139 32° Northeast  Level FlightAware Approximate
Thu 06:06:00 AM 73.7939 -43.0468 32° Northeast  Level FlightAware Approximate
Thu 06:07:00 AM 73.9105 -42.7760 33° Northeast  Level FlightAware Approximate
Thu 06:08:00 AM 74.0268 -42.5013 33° Northeast  Level FlightAware Approximate
Thu 06:09:00 AM 74.1427 -42.2227 33° Northeast  Level FlightAware Approximate
Thu 06:10:00 AM 74.2582 -41.9401 34° Northeast  Level FlightAware Approximate
Thu 06:11:00 AM 74.3734 -41.6534 34° Northeast  Level FlightAware Approximate
Thu 06:12:00 AM 74.4882 -41.3626 34° Northeast  Level FlightAware Approximate
Thu 06:13:00 AM 74.6026 -41.0676 34° Northeast  Level FlightAware Approximate
Thu 06:14:00 AM 74.7166 -40.7682 35° Northeast  Level FlightAware Approximate
Thu 06:15:00 AM 74.8302 -40.4645 35° Northeast  Level FlightAware Approximate
Thu 06:16:00 AM 74.9434 -40.1563 35° Northeast  Level FlightAware Approximate
Thu 06:17:00 AM 75.0536 -39.8307 39° Northeast  Level FlightAware Approximate
Thu 06:18:00 AM 75.1608 -39.4874 39° Northeast  Level FlightAware Approximate
Thu 06:19:00 AM 75.2674 -39.1393 40° Northeast  Level FlightAware Approximate
Thu 06:20:00 AM 75.3735 -38.7862 40° Northeast  Level FlightAware Approximate
Thu 06:21:00 AM 75.4791 -38.4280 40° Northeast  Level FlightAware Approximate
Thu 06:22:00 AM 75.5842 -38.0647 41° Northeast  Level FlightAware Approximate
Thu 06:23:00 AM 75.6887 -37.6968 41° Northeast  Level FlightAware Approximate
Thu 06:24:00 AM 75.7929 -37.3245 41° Northeast  Level FlightAware Approximate
Thu 06:25:00 AM 75.8966 -36.9468 42° Northeast  Level FlightAware Approximate
Thu 06:26:00 AM 75.9996 -36.5636 42° Northeast  Level FlightAware Approximate
Thu 06:27:00 AM 76.1020 -36.1749 42° Northeast  Level FlightAware Approximate
Thu 06:28:00 AM 76.2038 -35.7806 43° Northeast  Level FlightAware Approximate
Thu 06:29:00 AM 76.3049 -35.3801 44° Northeast  Level FlightAware Approximate
Thu 06:30:00 AM 76.4050 -34.9727 44° Northeast  Level FlightAware Approximate
Thu 06:31:00 AM 76.5045 -34.5593 44° Northeast  Level FlightAware Approximate
Thu 06:32:00 AM 76.6033 -34.1399 44° Northeast  Level FlightAware Approximate
Thu 06:33:00 AM 76.7014 -33.7145 45° Northeast  Level FlightAware Approximate
Thu 06:34:00 AM 76.7987 -33.2828 45° Northeast  Level FlightAware Approximate
Thu 06:35:00 AM 76.8955 -32.8453 46° Northeast  Level FlightAware Approximate
Thu 06:36:00 AM 76.9921 -32.4041 46° Northeast  Level FlightAware Approximate
Thu 06:37:00 AM 77.0880 -31.9565 46° Northeast  Level FlightAware Approximate
Thu 06:38:00 AM 77.1831 -31.5023 47° Northeast  Level FlightAware Approximate
Thu 06:39:00 AM 77.2774 -31.0415 47° Northeast  Level FlightAware Approximate
Thu 06:40:00 AM 77.3709 -30.5739 47° Northeast  Level FlightAware Approximate
Thu 06:41:00 AM 77.4635 -30.0995 48° Northeast  Level FlightAware Approximate
Thu 06:42:00 AM 77.5553 -29.6178 48° Northeast  Level FlightAware Approximate
Thu 06:43:00 AM 77.6461 -29.1290 49° Northeast  Level FlightAware Approximate
Thu 06:44:00 AM 77.7361 -28.6332 49° Northeast  Level FlightAware Approximate
Thu 06:45:00 AM 77.8252 -28.1301 50° Northeast  Level FlightAware Approximate
Thu 06:46:00 AM 77.9133 -27.6198 50° Northeast  Level FlightAware Approximate
Thu 06:47:00 AM 78.0005 -27.1022 51° Northeast  Level FlightAware Approximate
Thu 06:48:00 AM 78.0867 -26.5771 51° Northeast  Level FlightAware Approximate
Thu 06:49:00 AM 78.1720 -26.0445 52° Northeast  Level FlightAware Approximate
Thu 06:50:00 AM 78.2562 -25.5044 52° Northeast  Level FlightAware Approximate
Thu 06:51:00 AM 78.3394 -24.9566 53° Northeast  Level FlightAware Approximate
Thu 06:52:00 AM 78.4216 -24.4011 53° Northeast  Level FlightAware Approximate
Thu 06:53:00 AM 78.5027 -23.8378 54° Northeast  Level FlightAware Approximate
Thu 06:54:00 AM 78.5827 -23.2667 55° Northeast  Level FlightAware Approximate
Thu 06:55:00 AM 78.6616 -22.6877 55° Northeast  Level FlightAware Approximate
Thu 06:56:00 AM 78.7393 -22.1007 56° Northeast  Level FlightAware Approximate
Thu 06:57:00 AM 78.8159 -21.5057 56° Northeast  Level FlightAware Approximate
Thu 06:58:00 AM 78.8912 -20.9027 57° Northeast  Level FlightAware Approximate
Thu 06:59:00 AM 78.9654 -20.2917 57° Northeast  Level FlightAware Approximate
Thu 07:00:00 AM 79.0298 -19.6491 66° East  Level FlightAware Approximate
Thu 07:01:00 AM 79.0851 -18.9785 66° East  Level FlightAware Approximate
Thu 07:02:00 AM 79.1390 -18.3012 67° East  Level FlightAware Approximate
Thu 07:03:00 AM 79.1914 -17.6174 67° East  Level FlightAware Approximate
Thu 07:04:00 AM 79.2423 -16.9270 68° East  Level FlightAware Approximate
Thu 07:05:00 AM 79.2916 -16.2303 69° East  Level FlightAware Approximate
Thu 07:06:00 AM 79.3394 -15.5273 70° East  Level FlightAware Approximate
Thu 07:07:00 AM 79.3876 -14.8221 69° East  Level FlightAware Approximate
Thu 07:08:00 AM 79.4348 -14.1117 70° East  Level FlightAware Approximate
Thu 07:09:00 AM 79.4803 -13.3951 70° East  Level FlightAware Approximate
Thu 07:10:00 AM 79.5243 -12.6724 71° East  Level FlightAware Approximate
Thu 07:11:00 AM 79.5667 -11.9439 72° East  Level FlightAware Approximate
Thu 07:12:00 AM 79.6073 -11.2095 73° East  Level FlightAware Approximate
Thu 07:13:00 AM 79.6463 -10.4696 73° East  Level FlightAware Approximate
Thu 07:14:00 AM 79.6836 -9.7243 74° East  Level FlightAware Approximate
Thu 07:15:00 AM 79.7192 -8.9738 75° East  Level FlightAware Approximate
Thu 07:16:00 AM 79.7530 -8.2182 76° East  Level FlightAware Approximate
Thu 07:17:00 AM 79.7851 -7.4578 76° East  Level FlightAware Approximate
Thu 07:18:00 AM 79.8154 -6.6928 77° East  Level FlightAware Approximate
Thu 07:19:00 AM 79.8439 -5.9235 78° East  Level FlightAware Approximate
Thu 07:20:00 AM 79.8706 -5.1499 79° East  Level FlightAware Approximate
Thu 07:21:00 AM 79.8955 -4.3725 79° East  Level FlightAware Approximate
Thu 07:22:00 AM 79.9185 -3.5914 80° East  Level FlightAware Approximate
Thu 07:23:00 AM 79.9398 -2.8069 81° East  Level FlightAware Approximate
Thu 07:24:00 AM 79.9591 -2.0192 82° East  Level FlightAware Approximate
Thu 07:25:00 AM 79.9766 -1.2287 82° East  Level FlightAware Approximate
Thu 07:26:00 AM 79.9922 -0.4357 83° East  Level FlightAware Approximate
Thu 07:27:00 AM 80.0265 0.3279 65° Northeast  Level FlightAware Approximate
Thu 07:28:00 AM 80.0840 1.0595 65° Northeast  Level FlightAware Approximate
Thu 07:29:00 AM 80.1399 1.7994 66° East  Level FlightAware Approximate
Thu 07:30:00 AM 80.1942 2.5476 67° East  Level FlightAware Approximate
Thu 07:31:00 AM 80.2467 3.3039 67° East  Level FlightAware Approximate
Thu 07:32:00 AM 80.2977 4.0681 68° East  Level FlightAware Approximate
Thu 07:33:00 AM 80.3469 4.8403 69° East  Level FlightAware Approximate
Thu 07:34:00 AM 80.3943 5.6201 70° East  Level FlightAware Approximate
Thu 07:35:00 AM 80.4401 6.4074 70° East  Level FlightAware Approximate
Thu 07:36:00 AM 80.4840 7.2021 71° East  Level FlightAware Approximate
Thu 07:37:00 AM 80.5261 8.0040 72° East  Level FlightAware Approximate
Thu 07:38:00 AM 80.5664 8.8128 73° East  Level FlightAware Approximate
Thu 07:39:00 AM 80.6048 9.6283 74° East  Level FlightAware Approximate
Thu 07:40:00 AM 80.6413 10.4502 74° East  Level FlightAware Approximate
Thu 07:41:00 AM 80.6759 11.2784 75° East  Level FlightAware Approximate
Thu 07:42:00 AM 80.7086 12.1125 76° East  Level FlightAware Approximate
Thu 07:43:00 AM 80.7393 12.9523 77° East  Level FlightAware Approximate
Thu 07:44:00 AM 80.7681 13.7975 78° East  Level FlightAware Approximate
Thu 07:45:00 AM 80.7949 14.6477 78° East  Level FlightAware Approximate
Thu 07:46:00 AM 80.8197 15.5027 79° East  Level FlightAware Approximate
Thu 07:47:00 AM 80.8424 16.3620 80° East  Level FlightAware Approximate
Thu 07:48:00 AM 80.8632 17.2254 81° East  Level FlightAware Approximate
Thu 07:49:00 AM 80.8818 18.0925 82° East  Level FlightAware Approximate
Thu 07:50:00 AM 80.8985 18.9630 83° East  Level FlightAware Approximate
Thu 07:51:00 AM 80.9130 19.8364 84° East  Level FlightAware Approximate
Thu 07:52:00 AM 80.9255 20.7124 84° East  Level FlightAware Approximate
Thu 07:53:00 AM 80.9358 21.5905 85° East  Level FlightAware Approximate
Thu 07:54:00 AM 80.9441 22.4705 86° East  Level FlightAware Approximate
Thu 07:55:00 AM 80.9503 23.3519 87° East  Level FlightAware Approximate
Thu 07:56:00 AM 80.9543 24.2342 88° East  Level FlightAware Approximate
Thu 07:57:00 AM 80.9563 25.1171 89° East  Level FlightAware Approximate
Thu 07:58:00 AM 80.9561 26.0002 90° East  Level FlightAware Approximate
Thu 07:59:00 AM 80.9538 26.8831 91° East  Level FlightAware Approximate
Thu 08:00:00 AM 80.9494 27.7653 91° East  Level FlightAware Approximate
Thu 08:01:00 AM 80.9429 28.6465 92° East  Level FlightAware Approximate
Thu 08:02:00 AM 80.9343 29.5262 93° East  Level FlightAware Approximate
Thu 08:03:00 AM 80.9237 30.4040 94° East  Level FlightAware Approximate
Thu 08:04:00 AM 80.9109 31.2796 95° East  Level FlightAware Approximate
Thu 08:05:00 AM 80.8960 32.1526 96° East  Level FlightAware Approximate
Thu 08:06:00 AM 80.8791 33.0225 97° East  Level FlightAware Approximate
Thu 08:07:00 AM 80.8601 33.8891 97° East  Level FlightAware Approximate
Thu 08:08:00 AM 80.8390 34.7519 98° East  Level FlightAware Approximate
Thu 08:09:00 AM 80.8159 35.6106 99° East  Level FlightAware Approximate
Thu 08:10:00 AM 80.7908 36.4648 100° East  Level FlightAware Approximate
Thu 08:11:00 AM 80.7637 37.3143 101° East  Level FlightAware Approximate
Thu 08:12:00 AM 80.7347 38.1586 102° East  Level FlightAware Approximate
Thu 08:13:00 AM 80.7036 38.9975 103° East  Level FlightAware Approximate
Thu 08:14:00 AM 80.6706 39.8308 103° East  Level FlightAware Approximate
Thu 08:15:00 AM 80.6357 40.6580 104° East  Level FlightAware Approximate
Thu 08:16:00 AM 80.5989 41.4790 105° East  Level FlightAware Approximate
Thu 08:17:00 AM 80.5602 42.2934 106° East  Level FlightAware Approximate
Thu 08:18:00 AM 80.5197 43.1012 107° East  Level FlightAware Approximate
Thu 08:19:00 AM 80.4773 43.9019 107° East  Level FlightAware Approximate
Thu 08:20:00 AM 80.4331 44.6955 108° East  Level FlightAware Approximate
Thu 08:21:00 AM 80.3871 45.4817 109° East  Level FlightAware Approximate
Thu 08:22:00 AM 80.3393 46.2603 110° East  Level FlightAware Approximate
Thu 08:23:00 AM 80.2899 47.0312 111° Southeast  Level FlightAware Approximate
Thu 08:24:00 AM 80.2387 47.7943 111° Southeast  Level FlightAware Approximate
Thu 08:25:00 AM 80.1858 48.5493 112° Southeast  Level FlightAware Approximate
Thu 08:26:00 AM 80.1313 49.2962 113° Southeast  Level FlightAware Approximate
Thu 08:27:00 AM 80.0752 50.0348 113° Southeast  Level FlightAware Approximate
Thu 08:28:00 AM 80.0174 50.7651 114° Southeast  Level FlightAware Approximate
Thu 08:29:00 AM 79.9581 51.4870 115° Southeast  Level FlightAware Approximate
Thu 08:30:00 AM 79.8972 52.2004 116° Southeast  Level FlightAware Approximate
Thu 08:31:00 AM 79.8349 52.9052 116° Southeast  Level FlightAware Approximate
Thu 08:32:00 AM 79.7710 53.6014 117° Southeast  Level FlightAware Approximate
Thu 08:33:00 AM 79.7057 54.2890 118° Southeast  Level FlightAware Approximate
Thu 08:34:00 AM 79.6389 54.9679 118° Southeast  Level FlightAware Approximate
Thu 08:35:00 AM 79.5708 55.6381 119° Southeast  Level FlightAware Approximate
Thu 08:36:00 AM 79.5013 56.2996 120° Southeast  Level FlightAware Approximate
Thu 08:37:00 AM 79.4304 56.9524 120° Southeast  Level FlightAware Approximate
Thu 08:38:00 AM 79.3582 57.5965 121° Southeast  Level FlightAware Approximate
Thu 08:39:00 AM 79.2847 58.2320 122° Southeast  Level FlightAware Approximate
Thu 08:40:00 AM 79.2099 58.8589 122° Southeast  Level FlightAware Approximate
Thu 08:41:00 AM 79.1339 59.4771 123° Southeast  Level FlightAware Approximate
Thu 08:42:00 AM 79.0566 60.0868 124° Southeast  Level FlightAware Approximate
Thu 08:43:00 AM 78.9782 60.6880 124° Southeast  Level FlightAware Approximate
Thu 08:44:00 AM 78.8987 61.2811 125° Southeast  Level FlightAware Approximate
Thu 08:45:00 AM 78.8181 61.8658 125° Southeast  Level FlightAware Approximate
Thu 08:46:00 AM 78.7363 62.4423 126° Southeast  Level FlightAware Approximate
Thu 08:47:00 AM 78.6535 63.0105 126° Southeast  Level FlightAware Approximate
Thu 08:48:00 AM 78.5696 63.5705 127° Southeast  Level FlightAware Approximate
Thu 08:49:00 AM 78.4846 64.1225 127° Southeast  Level FlightAware Approximate
Thu 08:50:00 AM 78.3986 64.6664 128° Southeast  Level FlightAware Approximate
Thu 08:51:00 AM 78.3117 65.2023 129° Southeast  Level FlightAware Approximate
Thu 08:52:00 AM 78.2237 65.7304 129° Southeast  Level FlightAware Approximate
Thu 08:53:00 AM 78.1348 66.2508 130° Southeast  Level FlightAware Approximate
Thu 08:54:00 AM 78.0449 66.7635 130° Southeast  Level FlightAware Approximate
Thu 08:55:00 AM 77.9541 67.2686 131° Southeast  Level FlightAware Approximate
Thu 08:56:00 AM 77.8625 67.7662 131° Southeast  Level FlightAware Approximate
Thu 08:57:00 AM 77.7699 68.2564 132° Southeast  Level FlightAware Approximate
Thu 08:58:00 AM 77.6765 68.7394 132° Southeast  Level FlightAware Approximate
Thu 08:59:00 AM 77.5823 69.2151 133° Southeast  Level FlightAware Approximate
Thu 09:00:00 AM 77.4872 69.6838 133° Southeast  Level FlightAware Approximate
Thu 09:01:00 AM 77.3914 70.1455 133° Southeast  Level FlightAware Approximate
Thu 09:02:00 AM 77.2948 70.6003 134° Southeast  Level FlightAware Approximate
Thu 09:03:00 AM 77.1974 71.0483 134° Southeast  Level FlightAware Approximate
Thu 09:04:00 AM 77.0992 71.4897 135° Southeast  Level FlightAware Approximate
Thu 09:05:00 AM 77.0004 71.9245 135° Southeast  Level FlightAware Approximate
Thu 09:06:00 AM 76.9008 72.3528 136° Southeast  Level FlightAware Approximate
Thu 09:07:00 AM 76.8005 72.7747 136° Southeast  Level FlightAware Approximate
Thu 09:08:00 AM 76.6995 73.1904 136° Southeast  Level FlightAware Approximate
Thu 09:09:00 AM 76.5979 73.5998 137° Southeast  Level FlightAware Approximate
Thu 09:10:00 AM 76.4956 74.0033 137° Southeast  Level FlightAware Approximate
Thu 09:11:00 AM 76.3927 74.4007 138° Southeast  Level FlightAware Approximate
Thu 09:12:00 AM 76.2887 74.7900 139° Southeast  Level FlightAware Approximate
Thu 09:13:00 AM 76.1840 75.1729 139° Southeast  Level FlightAware Approximate
Thu 09:14:00 AM 76.0786 75.5500 139° Southeast  Level FlightAware Approximate
Thu 09:15:00 AM 75.9727 75.9216 140° Southeast  Level FlightAware Approximate
Thu 09:16:00 AM 75.8662 76.2877 140° Southeast  Level FlightAware Approximate
Thu 09:17:00 AM 75.7592 76.6484 140° Southeast  Level FlightAware Approximate
Thu 09:18:00 AM 75.6519 77.0050 140° Southeast  Level FlightAware Approximate
Thu 09:19:00 AM 75.5446 77.3590 140° Southeast  Level FlightAware Approximate
Thu 09:20:00 AM 75.4368 77.7080 141° Southeast  Level FlightAware Approximate
Thu 09:21:00 AM 75.3284 78.0519 141° Southeast  Level FlightAware Approximate
Thu 09:22:00 AM 75.2196 78.3908 141° Southeast  Level FlightAware Approximate
Thu 09:23:00 AM 75.1103 78.7249 142° Southeast  Level FlightAware Approximate
Thu 09:24:00 AM 75.0005 79.0542 142° Southeast  Level FlightAware Approximate
Thu 09:25:00 AM 74.8902 79.3789 142° Southeast  Level FlightAware Approximate
Thu 09:26:00 AM 74.7795 79.6989 143° Southeast  Level FlightAware Approximate
Thu 09:27:00 AM 74.6683 80.0144 143° Southeast  Level FlightAware Approximate
Thu 09:28:00 AM 74.5567 80.3255 143° Southeast  Level FlightAware Approximate
Thu 09:29:00 AM 74.4447 80.6322 144° Southeast  Level FlightAware Approximate
Thu 09:30:00 AM 74.3322 80.9346 144° Southeast  Level FlightAware Approximate
Thu 09:31:00 AM 74.2194 81.2328 144° Southeast  Level FlightAware Approximate
Thu 09:32:00 AM 74.1061 81.5269 145° Southeast  Level FlightAware Approximate
Thu 09:33:00 AM 73.9924 81.8169 145° Southeast  Level FlightAware Approximate
Thu 09:34:00 AM 73.8784 82.1029 145° Southeast  Level FlightAware Approximate
Thu 09:35:00 AM 73.7640 82.3850 145° Southeast  Level FlightAware Approximate
Thu 09:36:00 AM 73.6492 82.6632 146° Southeast  Level FlightAware Approximate
Thu 09:37:00 AM 73.5340 82.9376 146° Southeast  Level FlightAware Approximate
Thu 09:38:00 AM 73.4184 83.2078 146° Southeast  Level FlightAware Approximate
Thu 09:39:00 AM 73.3025 83.4744 147° Southeast  Level FlightAware Approximate
Thu 09:40:00 AM 73.1862 83.7374 147° Southeast  Level FlightAware Approximate
Thu 09:41:00 AM 73.0696 83.9969 147° Southeast  Level FlightAware Approximate
Thu 09:42:00 AM 72.9527 84.2529 147° Southeast  Level FlightAware Approximate
Thu 09:43:00 AM 72.8354 84.5055 148° Southeast  Level FlightAware Approximate
Thu 09:44:00 AM 72.7179 84.7548 148° Southeast  Level FlightAware Approximate
Thu 09:45:00 AM 72.6000 85.0008 148° Southeast  Level FlightAware Approximate
Thu 09:46:00 AM 72.4819 85.2437 148° Southeast  Level FlightAware Approximate
Thu 09:47:00 AM 72.3634 85.4833 148° Southeast  Level FlightAware Approximate
Thu 09:48:00 AM 72.2447 85.7199 149° Southeast  Level FlightAware Approximate
Thu 09:49:00 AM 72.1257 85.9534 149° Southeast  Level FlightAware Approximate
Thu 09:50:00 AM 72.0063 86.1837 149° Southeast  Level FlightAware Approximate
Thu 09:51:00 AM 71.8867 86.4109 149° Southeast  Level FlightAware Approximate
Thu 09:52:00 AM 71.7668 86.6351 150° Southeast  Level FlightAware Approximate
Thu 09:53:00 AM 71.6466 86.8565 150° Southeast  Level FlightAware Approximate
Thu 09:54:00 AM 71.5262 87.0751 150° Southeast  Level FlightAware Approximate
Thu 09:55:00 AM 71.4055 87.2910 150° Southeast  Level FlightAware Approximate
Thu 09:56:00 AM 71.2846 87.5042 150° Southeast  Level FlightAware Approximate
Thu 09:57:00 AM 71.1635 87.7148 151° Southeast  Level FlightAware Approximate
Thu 09:58:00 AM 71.0421 87.9228 151° Southeast  Level FlightAware Approximate
Thu 09:59:00 AM 70.9205 88.1282 151° Southeast  Level FlightAware Approximate
Thu 10:00:00 AM 70.7987 88.3311 151° Southeast  Level FlightAware Approximate
Thu 10:01:00 AM 70.6766 88.5315 151° Southeast  Level FlightAware Approximate
Thu 10:02:00 AM 70.5544 88.7295 152° Southeast  Level FlightAware Approximate
Thu 10:03:00 AM 70.4318 88.9249 152° Southeast  Level FlightAware Approximate
Thu 10:04:00 AM 70.3091 89.1179 152° Southeast  Level FlightAware Approximate
Thu 10:05:00 AM 70.1861 89.3085 152° Southeast  Level FlightAware Approximate
Thu 10:06:00 AM 70.0630 89.4968 152° Southeast  Level FlightAware Approximate
Thu 10:07:00 AM 69.9396 89.6830 153° Southeast  Level FlightAware Approximate
Thu 10:08:00 AM 69.8161 89.8669 153° Southeast  Level FlightAware Approximate
Thu 10:09:00 AM 69.6923 90.0488 153° Southeast  Level FlightAware Approximate
Thu 10:10:00 AM 69.5684 90.2284 153° Southeast  Level FlightAware Approximate
Thu 10:11:00 AM 69.4443 90.4061 153° Southeast  Level FlightAware Approximate
Thu 10:12:00 AM 69.3200 90.5816 153° Southeast  Level FlightAware Approximate
Thu 10:13:00 AM 69.1956 90.7552 154° Southeast  Level FlightAware Approximate
Thu 10:14:00 AM 69.0709 90.9268 154° Southeast  Level FlightAware Approximate
Thu 10:15:00 AM 68.9461 91.0965 154° Southeast  Level FlightAware Approximate
Thu 10:16:00 AM 68.8212 91.2642 154° Southeast  Level FlightAware Approximate
Thu 10:17:00 AM 68.6960 91.4301 154° Southeast  Level FlightAware Approximate
Thu 10:18:00 AM 68.5707 91.5941 154° Southeast  Level FlightAware Approximate
Thu 10:19:00 AM 68.4453 91.7563 155° Southeast  Level FlightAware Approximate
Thu 10:20:00 AM 68.3197 91.9167 155° Southeast  Level FlightAware Approximate
Thu 10:21:00 AM 68.1939 92.0754 155° Southeast  Level FlightAware Approximate
Thu 10:22:00 AM 68.0680 92.2323 155° Southeast  Level FlightAware Approximate
Thu 10:23:00 AM 67.9420 92.3875 155° Southeast  Level FlightAware Approximate
Thu 10:24:00 AM 67.8158 92.5411 155° Southeast  Level FlightAware Approximate
Thu 10:25:00 AM 67.6894 92.6929 155° Southeast  Level FlightAware Approximate
Thu 10:26:00 AM 67.5630 92.8432 156° South  Level FlightAware Approximate
Thu 10:27:00 AM 67.4363 92.9919 156° South  Level FlightAware Approximate
Thu 10:28:00 AM 67.3096 93.1389 156° South  Level FlightAware Approximate
Thu 10:29:00 AM 67.1828 93.2850 156° South  Level FlightAware Approximate
Thu 10:30:00 AM 67.0559 93.4296 156° South  Level FlightAware Approximate
Thu 10:31:00 AM 66.9288 93.5727 156° South  Level FlightAware Approximate
Thu 10:32:00 AM 66.8017 93.7143 156° South  Level FlightAware Approximate
Thu 10:33:00 AM 66.6743 93.8544 156° South  Level FlightAware Approximate
Thu 10:34:00 AM 66.5469 93.9931 157° South  Level FlightAware Approximate
Thu 10:35:00 AM 66.4194 94.1304 157° South  Level FlightAware Approximate
Thu 10:36:00 AM 66.2915 94.2651 157° South  Level FlightAware Approximate
Thu 10:37:00 AM 66.1635 94.3983 157° South  Level FlightAware Approximate
Thu 10:38:00 AM 66.0354 94.5303 157° South  Level FlightAware Approximate
Thu 10:39:00 AM 65.9072 94.6609 157° South  Level FlightAware Approximate
Thu 10:40:00 AM 65.7788 94.7902 158° South  Level FlightAware Approximate
Thu 10:41:00 AM 65.6504 94.9182 158° South  Level FlightAware Approximate
Thu 10:42:00 AM 65.5219 95.0449 158° South  Level FlightAware Approximate
Thu 10:43:00 AM 65.3934 95.1715 158° South  Level FlightAware Approximate
Thu 10:44:00 AM 65.2648 95.2968 158° South  Level FlightAware Approximate
Thu 10:45:00 AM 65.1361 95.4210 158° South  Level FlightAware Approximate
Thu 10:46:00 AM 65.0074 95.5440 158° South  Level FlightAware Approximate
Thu 10:47:00 AM 64.8785 95.6657 158° South  Level FlightAware Approximate
Thu 10:48:00 AM 64.7495 95.7863 158° South  Level FlightAware Approximate
Thu 10:49:00 AM 64.6204 95.9058 158° South  Level FlightAware Approximate
Thu 10:50:00 AM 64.4913 96.0241 158° South  Level FlightAware Approximate
Thu 10:51:00 AM 64.3620 96.1413 159° South  Level FlightAware Approximate
Thu 10:52:00 AM 64.2327 96.2575 159° South  Level FlightAware Approximate
Thu 10:53:00 AM 64.1032 96.3725 159° South  Level FlightAware Approximate
Thu 10:54:00 AM 63.9737 96.4865 159° South  Level FlightAware Approximate
Thu 10:55:00 AM 63.8441 96.5994 159° South  Level FlightAware Approximate
Thu 10:56:00 AM 63.7143 96.7113 159° South  Level FlightAware Approximate
Thu 10:57:00 AM 63.5845 96.8222 159° South  Level FlightAware Approximate
Thu 10:58:00 AM 63.4547 96.9320 159° South  Level FlightAware Approximate
Thu 10:59:00 AM 63.3247 97.0409 159° South  Level FlightAware Approximate
Thu 11:00:00 AM 63.1946 97.1488 159° South  Level FlightAware Approximate
Thu 11:01:00 AM 63.0645 97.2557 160° South  Level FlightAware Approximate
Thu 11:02:00 AM 62.9343 97.3617 160° South  Level FlightAware Approximate
Thu 11:03:00 AM 62.8040 97.4667 160° South  Level FlightAware Approximate
Thu 11:04:00 AM 62.6737 97.5708 160° South  Level FlightAware Approximate
Thu 11:05:00 AM 62.5432 97.6740 160° South  Level FlightAware Approximate
Thu 11:06:00 AM 62.4127 97.7763 160° South  Level FlightAware Approximate
Thu 11:07:00 AM 62.2821 97.8777 160° South  Level FlightAware Approximate
Thu 11:08:00 AM 62.1515 97.9783 160° South  Level FlightAware Approximate
Thu 11:09:00 AM 62.0207 98.0779 160° South  Level FlightAware Approximate
Thu 11:10:00 AM 61.8899 98.1767 160° South  Level FlightAware Approximate
Thu 11:11:00 AM 61.7590 98.2747 160° South  Level FlightAware Approximate
Thu 11:12:00 AM 61.6281 98.3718 161° South  Level FlightAware Approximate
Thu 11:13:00 AM 61.4971 98.4682 161° South  Level FlightAware Approximate
Thu 11:14:00 AM 61.3660 98.5637 161° South  Level FlightAware Approximate
Thu 11:15:00 AM 61.2348 98.6584 161° South  Level FlightAware Approximate
Thu 11:16:00 AM 61.1036 98.7523 161° South  Level FlightAware Approximate
Thu 11:17:00 AM 60.9723 98.8455 161° South  Level FlightAware Approximate
Thu 11:18:00 AM 60.8410 98.9379 161° South  Level FlightAware Approximate
Thu 11:19:00 AM 60.7096 99.0295 161° South  Level FlightAware Approximate
Thu 11:20:00 AM 60.5781 99.1204 161° South  Level FlightAware Approximate
Thu 11:21:00 AM 60.4466 99.2105 161° South  Level FlightAware Approximate
Thu 11:22:00 AM 60.3150 99.3000 161° South  Level FlightAware Approximate
Thu 11:23:00 AM 60.1834 99.3887 161° South  Level FlightAware Approximate
Thu 11:24:00 AM 60.0517 99.4767 162° South  Level FlightAware Approximate
Thu 11:25:00 AM 59.9200 99.5644 162° South  Level FlightAware Approximate
Thu 11:26:00 AM 59.7882 99.6513 162° South  Level FlightAware Approximate
Thu 11:27:00 AM 59.6564 99.7376 162° South  Level FlightAware Approximate
Thu 11:28:00 AM 59.5245 99.8232 162° South  Level FlightAware Approximate
Thu 11:29:00 AM 59.3926 99.9081 162° South  Level FlightAware Approximate
Thu 11:30:00 AM 59.2606 99.9924 162° South  Level FlightAware Approximate
Thu 11:31:00 AM 59.1285 100.0761 162° South  Level FlightAware Approximate
Thu 11:32:00 AM 58.9964 100.1590 162° South  Level FlightAware Approximate
Thu 11:33:00 AM 58.8643 100.2414 162° South  Level FlightAware Approximate
Thu 11:34:00 AM 58.7321 100.3231 162° South  Level FlightAware Approximate
Thu 11:35:00 AM 58.5999 100.4042 162° South  Level FlightAware Approximate
Thu 11:36:00 AM 58.4676 100.4847 162° South  Level FlightAware Approximate
Thu 11:37:00 AM 58.3352 100.5646 162° South  Level FlightAware Approximate
Thu 11:38:00 AM 58.2028 100.6439 162° South  Level FlightAware Approximate
Thu 11:39:00 AM 58.0704 100.7226 163° South  Level FlightAware Approximate
Thu 11:40:00 AM 57.9462 100.7959 163° South  Level FlightAware Approximate
Thu 11:41:00 AM 57.8219 100.8686 163° South  Level FlightAware Approximate
Thu 11:42:00 AM 57.6977 100.9408 163° South  Level FlightAware Approximate
Thu 11:43:00 AM 57.5734 101.0126 163° South  Level FlightAware Approximate
Thu 11:44:00 AM 57.4490 101.0838 163° South  Level FlightAware Approximate
Thu 11:45:00 AM 57.3246 101.1546 163° South  Level FlightAware Approximate
Thu 11:46:00 AM 57.2002 101.2249 163° South  Level FlightAware Approximate
Thu 11:47:00 AM 57.0757 101.2947 163° South  Level FlightAware Approximate
Thu 11:48:00 AM 56.9512 101.3641 163° South  Level FlightAware Approximate
Thu 11:49:00 AM 56.8267 101.4330 163° South  Level FlightAware Approximate
Thu 11:50:00 AM 56.7021 101.5014 163° South  Level FlightAware Approximate
Thu 11:51:00 AM 56.5775 101.5694 163° South  Level FlightAware Approximate
Thu 11:52:00 AM 56.4529 101.6369 163° South  Level FlightAware Approximate
Thu 11:53:00 AM 56.3298 101.7123 156° South  Level FlightAware Approximate
Thu 11:54:00 AM 56.2105 101.8058 156° South  Level FlightAware Approximate
Thu 11:55:00 AM 56.0912 101.8987 157° South  Level FlightAware Approximate
Thu 11:56:00 AM 55.9717 101.9910 157° South  Level FlightAware Approximate
Thu 11:57:00 AM 55.8521 102.0823 157° South  Level FlightAware Approximate
Thu 11:58:00 AM 55.7323 102.1727 157° South  Level FlightAware Approximate
Thu 11:59:00 AM 55.6125 102.2625 157° South  Level FlightAware Approximate
Thu 12:00:00 PM 55.4926 102.3518 157° South  Level FlightAware Approximate
Thu 12:01:00 PM 55.3727 102.4410 157° South  Level FlightAware Approximate
Thu 12:02:00 PM 55.2529 102.5299 157° South  Level FlightAware Approximate
Thu 12:03:00 PM 55.1330 102.6183 157° South  Level FlightAware Approximate
Thu 12:04:00 PM 55.0130 102.7061 157° South  Level FlightAware Approximate
Thu 12:05:00 PM 54.8929 102.7935 157° South  Level FlightAware Approximate
Thu 12:06:00 PM 54.7728 102.8803 157° South  Level FlightAware Approximate
Thu 12:07:00 PM 54.6526 102.9666 157° South  Level FlightAware Approximate
Thu 12:08:00 PM 54.5324 103.0524 158° South  Level FlightAware Approximate
Thu 12:09:00 PM 54.4121 103.1377 158° South  Level FlightAware Approximate
Thu 12:10:00 PM 54.2918 103.2225 158° South  Level FlightAware Approximate
Thu 12:11:00 PM 54.1713 103.3068 158° South  Level FlightAware Approximate
Thu 12:12:00 PM 54.0509 103.3906 158° South  Level FlightAware Approximate
Thu 12:13:00 PM 53.9304 103.4739 158° South  Level FlightAware Approximate
Thu 12:14:00 PM 53.8102 103.5584 157° South  Level FlightAware Approximate
Thu 12:15:00 PM 53.6900 103.6426 157° South  Level FlightAware Approximate
Thu 12:16:00 PM 53.5697 103.7264 158° South  Level FlightAware Approximate
Thu 12:17:00 PM 53.4494 103.8097 158° South  Level FlightAware Approximate
Thu 12:18:00 PM 53.3312 103.8999 151° Southeast  Level FlightAware Approximate
Thu 12:19:00 PM 53.2175 104.0058 151° Southeast  Level FlightAware Approximate
Thu 12:20:00 PM 53.1038 104.1112 151° Southeast  Level FlightAware Approximate
Thu 12:21:00 PM 52.9900 104.2160 151° Southeast  Level FlightAware Approximate
Thu 12:22:00 PM 52.8761 104.3203 151° Southeast  Level FlightAware Approximate
Thu 12:23:00 PM 52.7621 104.4240 151° Southeast  Level FlightAware Approximate
Thu 12:24:00 PM 52.6604 104.5564 138° Southeast  Level FlightAware Approximate
Thu 12:25:00 PM 52.5628 104.6981 139° Southeast  Level FlightAware Approximate
Thu 12:26:00 PM 52.4619 104.8329 141° Southeast  Level FlightAware Approximate
Thu 12:27:00 PM 52.3603 104.9662 141° Southeast  Level FlightAware Approximate
Thu 12:28:00 PM 52.2594 105.1005 139° Southeast  Level FlightAware Approximate
Thu 12:29:00 PM 52.1608 105.2390 139° Southeast  Level FlightAware Approximate
Thu 12:30:00 PM 52.0620 105.3768 139° Southeast  Level FlightAware Approximate
Thu 12:31:00 PM 51.9470 105.4703 159° South  Level FlightAware Approximate
Thu 12:32:00 PM 51.8254 105.5453 159° South  Level FlightAware Approximate
Thu 12:33:00 PM 51.7038 105.6200 159° South  Level FlightAware Approximate
Thu 12:34:00 PM 51.5822 105.6943 159° South  Level FlightAware Approximate
Thu 12:35:00 PM 51.4604 105.7682 159° South  Level FlightAware Approximate
Thu 12:36:00 PM 51.3387 105.8417 159° South  Level FlightAware Approximate
Thu 12:37:00 PM 51.2169 105.9147 159° South  Level FlightAware Approximate
Thu 12:38:00 PM 51.0950 105.9875 159° South  Level FlightAware Approximate
Thu 12:39:00 PM 50.9731 106.0598 160° South  Level FlightAware Approximate
Thu 12:40:00 PM 50.8516 106.1334 159° South  Level FlightAware Approximate
Thu 12:41:00 PM 50.7302 106.2075 159° South  Level FlightAware Approximate
Thu 12:42:00 PM 50.6088 106.2812 159° South  Level FlightAware Approximate
Thu 12:43:00 PM 50.4873 106.3544 159° South  Level FlightAware Approximate
Thu 12:44:00 PM 50.3658 106.4274 159° South  Level FlightAware Approximate
Thu 12:45:00 PM 50.2556 106.5292 138° Southeast  Level FlightAware Approximate
Thu 12:46:00 PM 50.1589 106.6651 138° Southeast  Level FlightAware Approximate
Thu 12:47:00 PM 50.0619 106.8004 138° Southeast  Level FlightAware Approximate
Thu 12:48:00 PM 49.9648 106.9352 138° Southeast  Level FlightAware Approximate
Thu 12:49:00 PM 49.8676 107.0694 138° Southeast  Level FlightAware Approximate
Thu 12:50:00 PM 49.7702 107.2031 138° Southeast  Level FlightAware Approximate
Thu 12:51:00 PM 49.6726 107.3362 139° Southeast  Level FlightAware Approximate
Thu 12:52:00 PM 49.5749 107.4688 139° Southeast  Level FlightAware Approximate
Thu 12:53:00 PM 49.4771 107.6009 139° Southeast  Level FlightAware Approximate
Thu 12:54:00 PM 49.3791 107.7325 139° Southeast  Level FlightAware Approximate
Thu 12:55:00 PM 49.2822 107.8618 139° Southeast  Level FlightAware Approximate
Thu 12:56:00 PM 49.1851 107.9907 139° Southeast  Level FlightAware Approximate
Thu 12:57:00 PM 49.0879 108.1191 139° Southeast  Level FlightAware Approximate
Thu 12:58:00 PM 48.9906 108.2469 139° Southeast  Level FlightAware Approximate
Thu 12:59:00 PM 48.8932 108.3744 139° Southeast  Level FlightAware Approximate
Thu 01:00:00 PM 48.7957 108.5016 139° Southeast  Level FlightAware Approximate
Thu 01:01:00 PM 48.6981 108.6282 139° Southeast  Level FlightAware Approximate
Thu 01:02:00 PM 48.6003 108.7543 140° Southeast  Level FlightAware Approximate
Thu 01:03:00 PM 48.5024 108.8800 140° Southeast  Level FlightAware Approximate
Thu 01:04:00 PM 48.4044 109.0051 140° Southeast  Level FlightAware Approximate
Thu 01:05:00 PM 48.3063 109.1298 140° Southeast  Level FlightAware Approximate
Thu 01:06:00 PM 48.2080 109.2540 140° Southeast  Level FlightAware Approximate
Thu 01:07:00 PM 48.1096 109.3778 140° Southeast  Level FlightAware Approximate
Thu 01:08:00 PM 48.0110 109.5010 140° Southeast  Level FlightAware Approximate
Thu 01:09:00 PM 47.9123 109.6238 140° Southeast  Level FlightAware Approximate
Thu 01:10:00 PM 47.8135 109.7461 140° Southeast  Level FlightAware Approximate
Thu 01:11:00 PM 47.7146 109.8681 140° Southeast  Level FlightAware Approximate
Thu 01:12:00 PM 47.6157 109.9898 140° Southeast  Level FlightAware Approximate
Thu 01:13:00 PM 47.5166 110.1109 140° Southeast  Level FlightAware Approximate
Thu 01:14:00 PM 47.4174 110.2316 141° Southeast  Level FlightAware Approximate
Thu 01:15:00 PM 47.3181 110.3519 141° Southeast  Level FlightAware Approximate
Thu 01:16:00 PM 47.2186 110.4717 141° Southeast  Level FlightAware Approximate
Thu 01:17:00 PM 47.1190 110.5910 141° Southeast  Level FlightAware Approximate
Thu 01:18:00 PM 47.0193 110.7100 141° Southeast  Level FlightAware Approximate
Thu 01:19:00 PM 46.9195 110.8284 141° Southeast  Level FlightAware Approximate
Thu 01:20:00 PM 46.8196 110.9464 141° Southeast  Level FlightAware Approximate
Thu 01:21:00 PM 46.7195 111.0640 141° Southeast  Level FlightAware Approximate
Thu 01:22:00 PM 46.6193 111.1812 141° Southeast  Level FlightAware Approximate
Thu 01:23:00 PM 46.5190 111.2979 141° Southeast  Level FlightAware Approximate
Thu 01:24:00 PM 46.4186 111.4142 141° Southeast  Level FlightAware Approximate
Thu 01:25:00 PM 46.3180 111.5300 141° Southeast  Level FlightAware Approximate
Thu 01:26:00 PM 46.2174 111.6454 142° Southeast  Level FlightAware Approximate
Thu 01:27:00 PM 46.1166 111.7605 142° Southeast  Level FlightAware Approximate
Thu 01:28:00 PM 46.0157 111.8750 142° Southeast  Level FlightAware Approximate
Thu 01:29:00 PM 45.9147 111.9892 142° Southeast  Level FlightAware Approximate
Thu 01:30:00 PM 45.8136 112.1030 142° Southeast  Level FlightAware Approximate
Thu 01:31:00 PM 45.7123 112.2163 142° Southeast  Level FlightAware Approximate
Thu 01:32:00 PM 45.6110 112.3292 142° Southeast  Level FlightAware Approximate
Thu 01:33:00 PM 45.5095 112.4418 142° Southeast  Level FlightAware Approximate
Thu 01:34:00 PM 45.4080 112.5539 142° Southeast  Level FlightAware Approximate
Thu 01:35:00 PM 45.3063 112.6656 142° Southeast  Level FlightAware Approximate
Thu 01:36:00 PM 45.2045 112.7769 142° Southeast  Level FlightAware Approximate
Thu 01:37:00 PM 45.1026 112.8878 142° Southeast  Level FlightAware Approximate
Thu 01:38:00 PM 45.0006 112.9984 143° Southeast  Level FlightAware Approximate
Thu 01:39:00 PM 44.8985 113.1085 143° Southeast  Level FlightAware Approximate
Thu 01:40:00 PM 44.7963 113.2182 143° Southeast  Level FlightAware Approximate
Thu 01:41:00 PM 44.6755 113.2467 181° South  Level FlightAware Approximate
Thu 01:42:00 PM 44.5471 113.2422 181° South  Level FlightAware Approximate
Thu 01:43:00 PM 44.4187 113.2376 181° South  Level FlightAware Approximate
Thu 01:44:00 PM 44.2903 113.2331 181° South  Level FlightAware Approximate
Thu 01:45:00 PM 44.1619 113.2286 181° South  Level FlightAware Approximate
Thu 01:46:00 PM 44.0335 113.2241 181° South  Level FlightAware Approximate
Thu 01:47:00 PM 43.9050 113.2196 181° South  Level FlightAware Approximate
Thu 01:48:00 PM 43.7766 113.2152 181° South  Level FlightAware Approximate
Thu 01:49:00 PM 43.6482 113.2107 181° South  Level FlightAware Approximate
Thu 01:50:00 PM 43.5198 113.2063 181° South  Level FlightAware Approximate
Thu 01:51:00 PM 43.3914 113.2019 181° South  Level FlightAware Approximate
Thu 01:52:00 PM 43.2630 113.1975 181° South  Level FlightAware Approximate
Thu 01:53:00 PM 43.1346 113.1932 181° South  Level FlightAware Approximate
Thu 01:54:00 PM 43.0062 113.1888 181° South  Level FlightAware Approximate
Thu 01:55:00 PM 42.8778 113.1845 181° South  Level FlightAware Approximate
Thu 01:56:00 PM 42.7493 113.1802 181° South  Level FlightAware Approximate
Thu 01:57:00 PM 42.6209 113.1759 181° South  Level FlightAware Approximate
Thu 01:58:00 PM 42.4925 113.1717 181° South  Level FlightAware Approximate
Thu 01:59:00 PM 42.3641 113.1674 181° South  Level FlightAware Approximate
Thu 02:00:00 PM 42.2357 113.1632 181° South  Level FlightAware Approximate
Thu 02:01:00 PM 42.1073 113.1589 181° South  Level FlightAware Approximate
Thu 02:02:00 PM 41.9789 113.1547 181° South  Level FlightAware Approximate
Thu 02:03:00 PM 41.8504 113.1506 181° South  Level FlightAware Approximate
Thu 02:04:00 PM 41.7329 113.2145 154° Southeast  Level FlightAware Approximate
Thu 02:05:00 PM 41.6170 113.2887 154° Southeast  Level FlightAware Approximate
Thu 02:06:00 PM 41.5011 113.3625 154° Southeast  Level FlightAware Approximate
Thu 02:07:00 PM 41.3851 113.4362 155° Southeast  Level FlightAware Approximate
Thu 02:08:00 PM 41.2691 113.5095 155° Southeast  Level FlightAware Approximate
Thu 02:09:00 PM 41.1530 113.5826 155° Southeast  Level FlightAware Approximate
Thu 02:10:00 PM 41.0369 113.6555 155° Southeast  Level FlightAware Approximate
Thu 02:11:00 PM 40.9207 113.7281 155° Southeast  Level FlightAware Approximate
Thu 02:12:00 PM 40.8045 113.8004 155° Southeast  Level FlightAware Approximate
Thu 02:13:00 PM 40.6882 113.8725 155° Southeast  Level FlightAware Approximate
Thu 02:14:00 PM 40.5719 113.9444 155° Southeast  Level FlightAware Approximate
Thu 02:15:00 PM 40.4555 114.0159 155° Southeast  Level FlightAware Approximate
Thu 02:16:00 PM 40.3364 114.0781 161° South  Level FlightAware Approximate
Thu 02:17:00 PM 40.2146 114.1318 161° South  Level FlightAware Approximate
Thu 02:18:00 PM 40.0928 114.1853 161° South  Level FlightAware Approximate
Thu 02:19:00 PM 39.9711 114.2387 161° South  Level FlightAware Approximate
Thu 02:20:00 PM 39.8492 114.2918 161° South  Level FlightAware Approximate
Thu 02:21:00 PM 39.7274 114.3447 162° South  Level FlightAware Approximate
Thu 02:22:00 PM 39.6055 114.3975 162° South  Level FlightAware Approximate
Thu 02:23:00 PM 39.4836 114.4500 162° South  Level FlightAware Approximate
Thu 02:24:00 PM 39.3617 114.5024 162° South  Level FlightAware Approximate
Thu 02:25:00 PM 39.2398 114.5546 162° South  Level FlightAware Approximate
Thu 02:26:00 PM 39.1170 114.5994 182° South  Level FlightAware Approximate
Thu 02:27:00 PM 38.9886 114.5947 182° South  Level FlightAware Approximate
Thu 02:28:00 PM 38.8602 114.5900 182° South  Level FlightAware Approximate
Thu 02:29:00 PM 38.7318 114.5854 182° South  Level FlightAware Approximate
Thu 02:30:00 PM 38.6034 114.5807 182° South  Level FlightAware Approximate
Thu 02:31:00 PM 38.4750 114.5761 182° South  Level FlightAware Approximate
Thu 02:32:00 PM 38.3466 114.5715 182° South  Level FlightAware Approximate
Thu 02:33:00 PM 38.2182 114.5669 182° South  Level FlightAware Approximate
Thu 02:34:00 PM 38.0898 114.5623 182° South  Level FlightAware Approximate
Thu 02:35:00 PM 37.9614 114.5577 182° South  Level FlightAware Approximate
Thu 02:36:00 PM 37.8330 114.5532 182° South  Level FlightAware Approximate
Thu 02:37:00 PM 37.7046 114.5487 182° South  Level FlightAware Approximate
Thu 02:38:00 PM 37.5762 114.5442 182° South  Level FlightAware Approximate
Thu 02:39:00 PM 37.4478 114.5396 182° South  Level FlightAware Approximate
Thu 02:40:00 PM 37.3194 114.5352 182° South  Level FlightAware Approximate
Thu 02:41:00 PM 37.1910 114.5312 181° South  Level FlightAware Approximate
Thu 02:42:00 PM 37.0626 114.5277 181° South  Level FlightAware Approximate
Thu 02:43:00 PM 36.9342 114.5242 181° South  Level FlightAware Approximate
Thu 02:44:00 PM 36.8057 114.5207 181° South  Level FlightAware Approximate
Thu 02:45:00 PM 36.6773 114.5172 181° South  Level FlightAware Approximate
Thu 02:46:00 PM 36.5489 114.5137 181° South  Level FlightAware Approximate
Thu 02:47:00 PM 36.4205 114.5102 181° South  Level FlightAware Approximate
Thu 02:48:00 PM 36.2920 114.5068 181° South  Level FlightAware Approximate
Thu 02:49:00 PM 36.1636 114.5033 181° South  Level FlightAware Approximate
Thu 02:50:00 PM 36.0352 114.4999 181° South  Level FlightAware Approximate
Thu 02:51:00 PM 35.9068 114.4964 181° South  Level FlightAware Approximate
Thu 02:52:00 PM 35.7784 114.4930 181° South  Level FlightAware Approximate
Thu 02:53:00 PM 35.6499 114.4896 181° South  Level FlightAware Approximate
Thu 02:54:00 PM 35.5215 114.4862 181° South  Level FlightAware Approximate
Thu 02:55:00 PM 35.3931 114.4828 181° South  Level FlightAware Approximate
Thu 02:56:00 PM 35.2647 114.4795 181° South  Level FlightAware Approximate
Thu 02:57:00 PM 35.1362 114.4761 181° South  Level FlightAware Approximate
Thu 02:58:00 PM 35.0078 114.4727 181° South  Level FlightAware Approximate
Thu 02:59:00 PM 34.8794 114.4694 181° South  Level FlightAware Approximate
Thu 03:00:00 PM 34.7510 114.4661 181° South  Level FlightAware Approximate
Thu 03:01:00 PM 34.6226 114.4628 181° South  Level FlightAware Approximate
Thu 03:02:00 PM 34.4941 114.4594 181° South  Level FlightAware Approximate
Thu 03:03:00 PM 34.3657 114.4561 181° South  Level FlightAware Approximate
Thu 03:04:00 PM 34.2373 114.4529 181° South  Level FlightAware Approximate
Thu 03:05:00 PM 34.1089 114.4496 181° South  Level FlightAware Approximate
Thu 03:06:00 PM 33.9804 114.4463 181° South  Level FlightAware Approximate
Thu 03:07:00 PM 33.8520 114.4430 181° South  Level FlightAware Approximate
Thu 03:08:00 PM 33.7236 114.4398 181° South  Level FlightAware Approximate
Thu 03:09:00 PM 33.5952 114.4365 181° South  Level FlightAware Approximate
Thu 03:10:00 PM 33.4668 114.4333 181° South  Level FlightAware Approximate
Thu 03:11:00 PM 33.3383 114.4301 181° South  Level FlightAware Approximate
Thu 03:12:00 PM 33.2099 114.4269 181° South  Level FlightAware Approximate
Thu 03:13:00 PM 33.0815 114.4237 181° South  Level FlightAware Approximate
Thu 03:14:00 PM 32.9531 114.4205 181° South  Level FlightAware Approximate
Thu 03:15:00 PM 32.8246 114.4173 181° South  Level FlightAware Approximate
Thu 03:16:00 PM 32.6962 114.4141 181° South  Level FlightAware Approximate
Thu 03:17:00 PM 32.5678 114.4109 181° South  Level FlightAware Approximate
Thu 03:18:00 PM 32.4394 114.4078 181° South  Level FlightAware Approximate
Thu 03:19:00 PM 32.3109 114.4046 181° South  Level FlightAware Approximate
Thu 03:20:00 PM 32.1825 114.4015 181° South  Level FlightAware Approximate
Thu 03:21:00 PM 32.0541 114.3984 181° South  Level FlightAware Approximate
Thu 03:22:00 PM 31.9257 114.3952 181° South  Level FlightAware Approximate
Thu 03:23:00 PM 31.7972 114.3921 181° South  Level FlightAware Approximate
Thu 03:24:00 PM 31.6688 114.3890 181° South  Level FlightAware Approximate
Thu 03:25:00 PM 31.5404 114.3859 181° South  Level FlightAware Approximate
Thu 03:26:00 PM 31.4120 114.3828 181° South  Level FlightAware Approximate
Thu 03:27:00 PM 31.2835 114.3798 181° South  Level FlightAware Approximate
Thu 03:28:00 PM 31.1551 114.3767 181° South  Level FlightAware Approximate
Thu 03:29:00 PM 31.0267 114.3736 181° South  Level FlightAware Approximate
Thu 03:30:00 PM 30.8983 114.3706 181° South  Level FlightAware Approximate
Thu 03:31:00 PM 30.7698 114.3675 181° South  Level FlightAware Approximate
Thu 03:32:00 PM 30.6414 114.3650 181° South  Level FlightAware Approximate
Thu 03:33:00 PM 30.5130 114.3627 181° South  Level FlightAware Approximate
Thu 03:34:00 PM 30.3845 114.3604 181° South  Level FlightAware Approximate
Thu 03:35:00 PM 30.2561 114.3581 181° South  Level FlightAware Approximate
Thu 03:36:00 PM 30.1277 114.3558 181° South  Level FlightAware Approximate
Thu 03:37:00 PM 29.9992 114.3535 181° South  Level FlightAware Approximate
Thu 03:38:00 PM 29.8708 114.3512 181° South  Level FlightAware Approximate
Thu 03:39:00 PM 29.7424 114.3487 181° South  Level FlightAware Approximate
Thu 03:40:00 PM 29.6139 114.3459 181° South  Level FlightAware Approximate
Thu 03:41:00 PM 29.4855 114.3431 181° South  Level FlightAware Approximate
Thu 03:42:00 PM 29.3571 114.3403 181° South  Level FlightAware Approximate
Thu 03:43:00 PM 29.2286 114.3375 181° South  Level FlightAware Approximate
Thu 03:44:00 PM 29.1002 114.3348 181° South  Level FlightAware Approximate
Thu 03:45:00 PM 28.9718 114.3320 181° South  Level FlightAware Approximate
Thu 03:46:00 PM 28.8434 114.3292 181° South  Level FlightAware Approximate
Thu 03:47:00 PM 28.7149 114.3264 181° South  Level FlightAware Approximate
Thu 03:48:00 PM 28.5865 114.3237 181° South  Level FlightAware Approximate
Thu 03:49:00 PM 28.4581 114.3210 181° South  Level FlightAware Approximate
Thu 03:50:00 PM 28.3297 114.3182 181° South  Level FlightAware Approximate
Thu 03:51:00 PM 28.2012 114.3155 181° South  Level FlightAware Approximate
Thu 03:52:00 PM 28.0728 114.3128 181° South  Level FlightAware Approximate
Thu 03:53:00 PM 27.9444 114.3100 181° South  Level FlightAware Approximate
Thu 03:54:00 PM 27.8159 114.3073 181° South  Level FlightAware Approximate
Thu 03:55:00 PM 27.6875 114.3046 181° South  Level FlightAware Approximate
Thu 03:56:00 PM 27.5591 114.3019 181° South  Level FlightAware Approximate
Thu 03:57:00 PM 27.4306 114.2992 181° South  Level FlightAware Approximate
Thu 03:58:00 PM 27.3022 114.2965 181° South  Level FlightAware Approximate
Thu 03:59:00 PM 27.1738 114.2938 181° South  Level FlightAware Approximate
Thu 04:00:00 PM 27.0453 114.2912 181° South  Level FlightAware Approximate
Thu 04:01:00 PM 26.9169 114.2885 181° South  Level FlightAware Approximate
Thu 04:02:00 PM 26.7885 114.2858 181° South  Level FlightAware Approximate
Thu 04:03:00 PM 26.6601 114.2832 181° South  Level FlightAware Approximate
Thu 04:04:00 PM 26.5316 114.2805 181° South  Level FlightAware Approximate
Thu 04:05:00 PM 26.4032 114.2779 181° South  Level FlightAware Approximate
Thu 04:06:00 PM 26.2748 114.2752 181° South  Level FlightAware Approximate
Thu 04:07:00 PM 26.1464 114.2726 181° South  Level FlightAware Approximate
Thu 04:08:00 PM 26.0179 114.2700 181° South  Level FlightAware Approximate
Thu 04:09:00 PM 25.8895 114.2673 181° South  Level FlightAware Approximate
Thu 04:10:00 PM 25.7611 114.2647 181° South  Level FlightAware Approximate
Thu 04:11:00 PM 25.6326 114.2621 181° South  Level FlightAware Approximate
Thu 04:12:00 PM 25.5042 114.2595 181° South  Level FlightAware Approximate
Thu 04:13:00 PM 25.3758 114.2569 181° South  Level FlightAware Approximate
Thu 04:14:00 PM 25.2473 114.2543 181° South  Level FlightAware Approximate
Thu 04:15:00 PM 25.1189 114.2517 181° South  Level FlightAware Approximate
Thu 04:16:00 PM 24.9905 114.2491 181° South  Level FlightAware Approximate
Thu 04:17:00 PM 24.8620 114.2466 181° South  Level FlightAware Approximate
Thu 04:18:00 PM 24.7336 114.2440 181° South  Level FlightAware Approximate
Thu 04:19:00 PM 24.6052 114.2414 181° South  Level FlightAware Approximate
Thu 04:20:00 PM 24.4768 114.2388 181° South  Level FlightAware Approximate
Thu 04:21:00 PM 24.3483 114.2363 181° South  Level FlightAware Approximate
Thu 04:22:00 PM 24.2199 114.2337 181° South  Level FlightAware Approximate
Thu 04:23:00 PM 24.0914 114.2333 180° South  Level FlightAware Approximate
Thu 04:24:00 PM 23.9630 114.2322 183° South  Level FlightAware Approximate
Thu 04:25:00 PM 23.8347 114.2251 183° South  Level FlightAware Approximate
Thu 04:26:00 PM 23.7064 114.2179 183° South  Level FlightAware Approximate
Thu 04:27:00 PM 23.5780 114.2167 180° South  Level FlightAware Approximate
Thu 04:28:00 PM 23.4496 114.2167 180° South  Level FlightAware Approximate
Thu 04:29:00 PM 23.3212 114.2116 183° South  Level FlightAware Approximate
Thu 04:30:00 PM 23.1929 114.2049 183° South  Level FlightAware Approximate
Thu 04:31:00 PM 23.0646 114.2000 180° South  Level FlightAware Approximate
Thu 04:32:00 PM 22.9361 114.2000 180° South  Level FlightAware Approximate
Thu 04:33:00 PM 22.8077 114.2000 180° South  Level FlightAware Approximate
Thu 04:34:00 PM 22.6792 114.2000 180° South  Level FlightAware Approximate
Thu 04:35:00 PM 22.5508 114.2000 180° South  Level FlightAware Approximate
Thu 04:36:00 PM 22.4223 114.2000 180° South  Level FlightAware Approximate
Thu 04:37:00 PM 22.3167 114.2000 180° South  Level FlightAware Approximate
Thu 04:38:00 PM 22.3130 114.0612 180° South  Level Estimated
Thu 04:38:17 PM 22.4713 113.6196 187° South 414 476 25,300  Level FlightAware ADS-B
Thu 04:38:57 PM 22.3960 113.6092 187° South 405 466 24,400 -1,462 Descending FlightAware ADS-B
Thu 04:39:35 PM 22.3255 113.5995 187° South 398 458 23,400 -1,513 Descending FlightAware ADS-B
Thu 04:40:52 PM 22.1860 113.5805 187° South 393 452 21,500 -1,500 Descending FlightAware ADS-B
Thu 04:41:27 PM 22.1242 113.5720 187° South 388 447 20,600 -1,455 Descending FlightAware ADS-B
Thu 04:41:58 PM 22.0672 113.5644 187° South 385 443 19,900 -1,437 Descending FlightAware ADS-B
Thu 04:42:38 PM 21.9977 113.5574 178° South 386 444 18,900 -1,667 Descending FlightAware ADS-B
Thu 04:42:52 PM 21.9728 113.5617 165° South 386 444 18,400 -1,698 Descending FlightAware ADS-B
Thu 04:43:31 PM 21.9098 113.5883 157° South 376 433 17,400 -2,500 Descending FlightAware ADS-B
Thu 04:44:16 PM 21.8364 113.6222 156° South 366 421 14,900 -4,364 Descending FlightAware ADS-B
Thu 04:44:26 PM 21.8230 113.6290 155° Southeast 365 420 13,400 -3,366 Descending FlightAware ADS-B
Thu 04:44:57 PM 21.7799 113.6603 133° Southeast 358 412 12,600 -2,308 Descending FlightAware ADS-B
Thu 04:45:18 PM 21.7634 113.6929 110° East 357 411 11,400 -3,889 Descending FlightAware ADS-B
Thu 04:45:51 PM 21.7696 113.7479 71° East 349 402 9,100 -3,396 Descending FlightAware ADS-B
Thu 04:46:11 PM 21.7918 113.7724 68° East 348 400 8,400 -2,308 Descending FlightAware ADS-B
Thu 04:46:17 PM 21.7962 113.7749 21° North 335 386 8,100 -2,609 Descending FlightAware ADS-B
Thu 04:46:34 PM 21.8256 113.7817 North 328 377 7,400 -2,229 Descending FlightAware ADS-B
Thu 04:46:52 PM 21.8520 113.7821 360° North 324 373 6,800 -1,543 Descending FlightAware ADS-B
Thu 04:47:09 PM 21.8774 113.7822 North 320 368 6,500 -1,050 Descending FlightAware ADS-B
Thu 04:47:32 PM 21.9072 113.7823 North 320 368 6,100 -1,125 Descending FlightAware ADS-B
Thu 04:47:57 PM 21.9473 113.7825 360° North 307 353 5,600 -1,143 Descending FlightAware ADS-B
Thu 04:48:14 PM 21.9492 113.7824 357° North 301 346 5,300 -900 Descending FlightAware ADS-B
Thu 04:48:37 PM 21.9798 113.7810 357° North 296 341 5,000 -682 Descending FlightAware ADS-B
Thu 04:48:58 PM 22.0308 113.7785 358° North 279 321 4,800 -585 Descending FlightAware ADS-B
Thu 04:49:18 PM 22.0557 113.7775 358° North 271 312 4,600 -333 Descending FlightAware ADS-B
Thu 04:49:34 PM 22.0750 113.7768 358° North 261 300 4,600  Level FlightAware ADS-B
Thu 04:49:54 PM 22.0980 113.7755 354° North 241 277 4,600 -154 Level FlightAware ADS-B
Thu 04:50:13 PM 22.1174 113.7703 343° North 240 276 4,500 -474 Descending FlightAware ADS-B
Thu 04:50:32 PM 22.1364 113.7611 335° Northwest 229 264 4,300 -549 Descending FlightAware ADS-B
Thu 04:52:35 PM 22.2475 113.7267 35° Northeast 210 242 3,200 -583 Descending FlightAware ADS-B
Thu 04:52:56 PM 22.2578 113.7377 66° East 196 226 2,900 -857 Descending FlightAware ADS-B
Thu 04:55:00 PM 22.3089 113.9146 73° East  Level Estimated
Thu 04:56:00 PM 22.3089 113.9146 North  Level Estimated
Thu 04:57:00 PM 22.3089 113.9146 North  Level Estimated
Thu 04:58:00 PM 22.3089 113.9146 North  Level Estimated
Thu 04:59:00 PM 22.3089 113.9146 North  Level Estimated
Thu 05:00:00 PM 22.3089 113.9146 North  Level Estimated
Thu 05:01:00 PM 22.3089 113.9146 North  Level Estimated
Thu 05:02:00 PM 22.3089 113.9146 North  Level Estimated
Thu 05:03:00 PM 22.3089 113.9146 North  Level Estimated
Thu 05:04:00 PM 22.3089 113.9146 North  Level Estimated
Thu 05:05:00 PM 22.3089 113.9146 North  Level Estimated
Thu 05:06:00 PM 22.3089 113.9146 North  Level Estimated

Login

Don't have an account? Register now (free) for customized features, flight alerts, and more!